Observation data for Throckmorton on 08/07/2020      Previous  Date  Next       Current Mesonet Observations  Soil Data  Daily Summary Page  Observations in Plain Language
KTH1 070500Z 16008KT 30/16 A2992 RMK A01 T02950158  RH  044%=      5-min Rain = 0
KTH1 070501Z 17008KT 30/16 A2992 RMK A01 T02950158  RH  044%=      5-min Rain = 0
KTH1 070502Z 16008KT 30/16 A2992 RMK A01 T02950158  RH  044%=      5-min Rain = 0
KTH1 070503Z 17008KT 30/16 A2992 RMK A01 T02950158  RH  043%=      5-min Rain = 0
KTH1 070504Z 16007KT 30/16 A2992 RMK A01 T02950158  RH  043%=      5-min Rain = 0
KTH1 070505Z 17006KT 30/16 A2992 RMK A01 T02950158  RH  043%=      5-min Rain = 0
KTH1 070506Z 16007KT 30/16 A2993 RMK A01 T02950158  RH  043%=      5-min Rain = 0
KTH1 070507Z 16007KT 30/16 A2993 RMK A01 T02950158  RH  044%=      5-min Rain = 0
KTH1 070508Z 17008G13KT 30/16 A2993 RMK A01 T02950158  RH  044%=      5-min Rain = 0
KTH1 070509Z 17007KT 30/16 A2993 RMK A01 T02950158  RH  043%=      5-min Rain = 0
KTH1 070510Z 16006KT 30/16 A2993 RMK A01 T02950157  RH  043%=      5-min Rain = 0
KTH1 070511Z 16007KT 30/16 A2993 RMK A01 T02950157  RH  043%=      5-min Rain = 0
KTH1 070512Z 16007KT 30/16 A2993 RMK A01 T02950157  RH  043%=      5-min Rain = 0
KTH1 070513Z 17007KT 30/16 A2993 RMK A01 T02950157  RH  043%=      5-min Rain = 0
KTH1 070514Z 17009KT 30/16 A2993 RMK A01 T02950157  RH  043%=      5-min Rain = 0
KTH1 070515Z 17009G14KT 30/16 A2993 RMK A01 T02950156  RH  043%=      5-min Rain = 0
KTH1 070516Z 16006KT 30/16 A2993 RMK A01 T02960156  RH  043%=      5-min Rain = 0
KTH1 070517Z 17009KT 30/16 A2993 RMK A01 T02960157  RH  043%=      5-min Rain = 0
KTH1 070518Z 17006KT 30/16 A2993 RMK A01 T02960157  RH  043%=      5-min Rain = 0
KTH1 070519Z 16008KT 30/16 A2993 RMK A01 T02960157  RH  043%=      5-min Rain = 0
KTH1 070520Z 17008KT 30/16 A2993 RMK A01 T02960157  RH  043%=      5-min Rain = 0
KTH1 070521Z 17006KT 30/16 A2993 RMK A01 T02960157  RH  043%=      5-min Rain = 0
KTH1 070522Z 16008KT 30/16 A2993 RMK A01 T02960156  RH  043%=      5-min Rain = 0
KTH1 070523Z 16007KT 30/16 A2993 RMK A01 T02960156  RH  043%=      5-min Rain = 0
KTH1 070524Z 16008KT 30/16 A2993 RMK A01 T02950156  RH  043%=      5-min Rain = 0
KTH1 070525Z 16007KT 30/16 A2993 RMK A01 T02950156  RH  043%=      5-min Rain = 0
KTH1 070526Z 17007KT 30/16 A2993 RMK A01 T02950156  RH  043%=      5-min Rain = 0
KTH1 070527Z 16006KT 30/16 A2993 RMK A01 T02950156  RH  043%=      5-min Rain = 0
KTH1 070528Z 16006KT 29/16 A2993 RMK A01 T02940156  RH  043%=      5-min Rain = 0
KTH1 070529Z 16007KT 29/16 A2993 RMK A01 T02940156  RH  043%=      5-min Rain = 0
KTH1 070530Z 16005G10KT 29/16 A2993 RMK A01 T02940156  RH  043%=      5-min Rain = 0
KTH1 070531Z 16006KT 29/16 A2993 RMK A01 T02930156  RH  043%=      5-min Rain = 0
KTH1 070532Z 16007KT 29/16 A2993 RMK A01 T02930156  RH  044%=      5-min Rain = 0
KTH1 070533Z 17006KT 29/16 A2993 RMK A01 T02920156  RH  044%=      5-min Rain = 0
KTH1 070534Z 16005KT 29/16 A2993 RMK A01 T02920156  RH  044%=      5-min Rain = 0
KTH1 070535Z 16006KT 29/16 A2993 RMK A01 T02920156  RH  044%=      5-min Rain = 0
KTH1 070536Z 16006KT 29/16 A2993 RMK A01 T02910156  RH  044%=      5-min Rain = 0
KTH1 070537Z 16006KT 29/16 A2993 RMK A01 T02910156  RH  044%=      5-min Rain = 0
KTH1 070538Z 16007KT 29/16 A2993 RMK A01 T02900156  RH  044%=      5-min Rain = 0
KTH1 070539Z 16006KT 29/16 A2993 RMK A01 T02900156  RH  044%=      5-min Rain = 0
KTH1 070540Z 16006KT 29/16 A2993 RMK A01 T02900156  RH  044%=      5-min Rain = 0
KTH1 070541Z 16006KT 29/16 A2993 RMK A01 T02890156  RH  044%=      5-min Rain = 0
KTH1 070542Z 16005KT 29/16 A2993 RMK A01 T02890156  RH  045%=      5-min Rain = 0
KTH1 070543Z 16005KT 29/16 A2993 RMK A01 T02870156  RH  045%=      5-min Rain = 0
KTH1 070544Z 17006KT 29/16 A2993 RMK A01 T02870156  RH  045%=      5-min Rain = 0
KTH1 070545Z 16005KT 29/16 A2993 RMK A01 T02860156  RH  045%=      5-min Rain = 0
KTH1 070546Z 16004KT 29/16 A2993 RMK A01 T02860155  RH  045%=      5-min Rain = 0
KTH1 070547Z 16005KT 29/16 A2993 RMK A01 T02850155  RH  045%=      5-min Rain = 0
KTH1 070548Z 17005KT 29/16 A2993 RMK A01 T02850156  RH  045%=      5-min Rain = 0
KTH1 070549Z 17005KT 29/16 A2994 RMK A01 T02850155  RH  045%=      5-min Rain = 0
KTH1 070550Z 17005KT 29/16 A2994 RMK A01 T02850156  RH  045%=      5-min Rain = 0
KTH1 070551Z 16005KT 29/16 A2994 RMK A01 T02850156  RH  045%=      5-min Rain = 0
KTH1 070552Z 16004KT 28/16 A2994 RMK A01 T02840156  RH  046%=      5-min Rain = 0
KTH1 070553Z 17004KT 28/16 A2994 RMK A01 T02840156  RH  046%=      5-min Rain = 0
KTH1 070554Z 17005KT 28/16 A2994 RMK A01 T02840156  RH  046%=      5-min Rain = 0
KTH1 070555Z 17004KT 28/16 A2994 RMK A01 T02830155  RH  046%=      5-min Rain = 0
KTH1 070556Z 17005KT 28/16 A2994 RMK A01 T02830156  RH  046%=      5-min Rain = 0
KTH1 070557Z 17006KT 28/16 A2994 RMK A01 T02830155  RH  046%=      5-min Rain = 0
KTH1 070558Z 17005KT 28/16 A2994 RMK A01 T02830155  RH  046%=      5-min Rain = 0
KTH1 070559Z 17004KT 28/16 A2994 RMK A01 T02830155  RH  046%=      5-min Rain = 0
KTH1 070600Z 17005KT 28/16 A2994 RMK A01 T02830156  RH  046%=      5-min Rain = 0
KTH1 070601Z 16004KT 28/16 A2994 RMK A01 T02830156  RH  046%=      5-min Rain = 0
KTH1 070602Z 16004KT 28/16 A2994 RMK A01 T02830156  RH  046%=      5-min Rain = 0
KTH1 070603Z 16005KT 28/16 A2994 RMK A01 T02820155  RH  046%=      5-min Rain = 0
KTH1 070604Z 17005KT 28/16 A2994 RMK A01 T02820156  RH  046%=      5-min Rain = 0
KTH1 070605Z 17004KT 28/16 A2994 RMK A01 T02810155  RH  046%=      5-min Rain = 0
KTH1 070606Z 16004KT 28/16 A2994 RMK A01 T02820155  RH  046%=      5-min Rain = 0
KTH1 070607Z 17005KT 28/16 A2994 RMK A01 T02820155  RH  046%=      5-min Rain = 0
KTH1 070608Z 16005KT 28/16 A2994 RMK A01 T02820155  RH  046%=      5-min Rain = 0
KTH1 070609Z 16005KT 28/16 A2994 RMK A01 T02820156  RH  046%=      5-min Rain = 0
KTH1 070610Z 16006KT 28/16 A2994 RMK A01 T02820156  RH  046%=      5-min Rain = 0
KTH1 070611Z 16005KT 28/16 A2994 RMK A01 T02830156  RH  046%=      5-min Rain = 0
KTH1 070612Z 16006KT 28/16 A2994 RMK A01 T02820156  RH  046%=      5-min Rain = 0
KTH1 070613Z 17004KT 28/16 A2994 RMK A01 T02820156  RH  046%=      5-min Rain = 0
KTH1 070614Z 16005KT 28/16 A2994 RMK A01 T02810155  RH  046%=      5-min Rain = 0
KTH1 070615Z 17006KT 28/16 A2994 RMK A01 T02810156  RH  046%=      5-min Rain = 0
KTH1 070616Z 16005KT 28/16 A2994 RMK A01 T02810156  RH  046%=      5-min Rain = 0
KTH1 070617Z 17005KT 28/16 A2994 RMK A01 T02810156  RH  047%=      5-min Rain = 0
KTH1 070618Z 16004KT 28/16 A2994 RMK A01 T02810156  RH  047%=      5-min Rain = 0
KTH1 070619Z 16005KT 28/16 A2994 RMK A01 T02800156  RH  047%=      5-min Rain = 0
KTH1 070620Z 16005KT 28/16 A2994 RMK A01 T02790156  RH  047%=      5-min Rain = 0
KTH1 070621Z 16006KT 28/16 A2994 RMK A01 T02780156  RH  047%=      5-min Rain = 0
KTH1 070622Z 17006KT 28/16 A2994 RMK A01 T02780156  RH  047%=      5-min Rain = 0
KTH1 070623Z 16005KT 28/16 A2994 RMK A01 T02780156  RH  047%=      5-min Rain = 0
KTH1 070624Z 16004KT 28/16 A2994 RMK A01 T02780156  RH  047%=      5-min Rain = 0
KTH1 070625Z 17005KT 28/16 A2994 RMK A01 T02780156  RH  047%=      5-min Rain = 0
KTH1 070626Z 16005KT 28/16 A2994 RMK A01 T02780156  RH  048%=      5-min Rain = 0
KTH1 070627Z 16005KT 28/16 A2994 RMK A01 T02770156  RH  048%=      5-min Rain = 0
KTH1 070628Z 16004KT 28/16 A2994 RMK A01 T02770156  RH  048%=      5-min Rain = 0
KTH1 070629Z 17005KT 28/16 A2994 RMK A01 T02770157  RH  048%=      5-min Rain = 0
KTH1 070630Z 16005KT 28/16 A2994 RMK A01 T02760156  RH  048%=      5-min Rain = 0
KTH1 070631Z 16005KT 28/16 A2994 RMK A01 T02760157  RH  048%=      5-min Rain = 0
KTH1 070632Z 17005KT 28/16 A2994 RMK A01 T02760157  RH  048%=      5-min Rain = 0
KTH1 070633Z 17005KT 28/16 A2994 RMK A01 T02760157  RH  048%=      5-min Rain = 0
KTH1 070634Z 17006KT 28/16 A2994 RMK A01 T02760156  RH  048%=      5-min Rain = 0
KTH1 070635Z 18007KT 28/16 A2994 RMK A01 T02760156  RH  048%=      5-min Rain = 0
KTH1 070636Z 18006KT 28/16 A2994 RMK A01 T02770156  RH  048%=      5-min Rain = 0
KTH1 070637Z 17006KT 28/16 A2994 RMK A01 T02770156  RH  048%=      5-min Rain = 0
KTH1 070638Z 17006KT 28/16 A2995 RMK A01 T02770156  RH  048%=      5-min Rain = 0
KTH1 070639Z 17006KT 28/16 A2995 RMK A01 T02770156  RH  048%=      5-min Rain = 0
KTH1 070640Z 17005KT 28/16 A2995 RMK A01 T02770157  RH  048%=      5-min Rain = 0
KTH1 070641Z 18005KT 28/16 A2995 RMK A01 T02770157  RH  048%=      5-min Rain = 0
KTH1 070642Z 17005KT 28/16 A2995 RMK A01 T02770157  RH  048%=      5-min Rain = 0
KTH1 070643Z 18006KT 28/16 A2995 RMK A01 T02760157  RH  048%=      5-min Rain = 0
KTH1 070644Z 18006KT 28/16 A2995 RMK A01 T02760157  RH  048%=      5-min Rain = 0
KTH1 070645Z 17006KT 28/16 A2995 RMK A01 T02760157  RH  048%=      5-min Rain = 0
KTH1 070646Z 18005KT 28/16 A2995 RMK A01 T02760157  RH  048%=      5-min Rain = 0
KTH1 070647Z 17005KT 28/16 A2995 RMK A01 T02750157  RH  048%=      5-min Rain = 0
KTH1 070648Z 17005KT 28/16 A2995 RMK A01 T02750157  RH  048%=      5-min Rain = 0
KTH1 070649Z 17005KT 28/16 A2995 RMK A01 T02750157  RH  048%=      5-min Rain = 0
KTH1 070650Z 17006KT 28/16 A2995 RMK A01 T02750157  RH  048%=      5-min Rain = 0
KTH1 070651Z 17006KT 28/16 A2994 RMK A01 T02750157  RH  048%=      5-min Rain = 0
KTH1 070652Z 17006KT 28/16 A2995 RMK A01 T02750157  RH  048%=      5-min Rain = 0
KTH1 070653Z 16005KT 28/16 A2995 RMK A01 T02750157  RH  048%=      5-min Rain = 0
KTH1 070654Z 17007KT 28/16 A2995 RMK A01 T02750157  RH  048%=      5-min Rain = 0
KTH1 070655Z 17005KT 28/16 A2995 RMK A01 T02750157  RH  048%=      5-min Rain = 0
KTH1 070656Z 17005KT 28/16 A2995 RMK A01 T02760157  RH  048%=      5-min Rain = 0
KTH1 070657Z 17005KT 28/16 A2995 RMK A01 T02760157  RH  048%=      5-min Rain = 0
KTH1 070658Z 18006KT 28/16 A2995 RMK A01 T02760157  RH  048%=      5-min Rain = 0
KTH1 070659Z 17007KT 28/16 A2995 RMK A01 T02760158  RH  048%=      5-min Rain = 0
KTH1 070700Z 17006KT 28/16 A2995 RMK A01 T02760158  RH  049%=      5-min Rain = 0
KTH1 070701Z 18007KT 28/16 A2995 RMK A01 T02760158  RH  049%=      5-min Rain = 0
KTH1 070702Z 18007KT 28/16 A2995 RMK A01 T02760158  RH  049%=      5-min Rain = 0
KTH1 070703Z 17006KT 28/16 A2995 RMK A01 T02760158  RH  048%=      5-min Rain = 0
KTH1 070704Z 18006KT 28/16 A2995 RMK A01 T02760158  RH  048%=      5-min Rain = 0
KTH1 070705Z 17006KT 28/16 A2995 RMK A01 T02760158  RH  049%=      5-min Rain = 0
KTH1 070706Z 18009KT 28/16 A2995 RMK A01 T02760158  RH  048%=      5-min Rain = 0
KTH1 070707Z 18005KT 28/16 A2995 RMK A01 T02770159  RH  048%=      5-min Rain = 0
KTH1 070708Z 18008KT 28/16 A2995 RMK A01 T02770159  RH  048%=      5-min Rain = 0
KTH1 070709Z 17006KT 28/16 A2995 RMK A01 T02780159  RH  048%=      5-min Rain = 0
KTH1 070710Z 18006KT 28/16 A2995 RMK A01 T02780159  RH  048%=      5-min Rain = 0
KTH1 070711Z 18007KT 28/16 A2994 RMK A01 T02780159  RH  048%=      5-min Rain = 0
KTH1 070712Z 17007KT 28/16 A2994 RMK A01 T02780159  RH  048%=      5-min Rain = 0
KTH1 070713Z 17007KT 28/16 A2994 RMK A01 T02780159  RH  048%=      5-min Rain = 0
KTH1 070714Z 17006KT 28/16 A2994 RMK A01 T02780159  RH  048%=      5-min Rain = 0
KTH1 070715Z 17008KT 28/16 A2994 RMK A01 T02790160  RH  048%=      5-min Rain = 0
KTH1 070716Z 17007KT 28/16 A2994 RMK A01 T02790160  RH  048%=      5-min Rain = 0
KTH1 070717Z 17007KT 28/16 A2994 RMK A01 T02790160  RH  048%=      5-min Rain = 0
KTH1 070718Z 17008KT 28/16 A2994 RMK A01 T02790160  RH  048%=      5-min Rain = 0
KTH1 070719Z 17007KT 28/16 A2994 RMK A01 T02800160  RH  048%=      5-min Rain = 0
KTH1 070720Z 17007KT 28/16 A2994 RMK A01 T02790160  RH  048%=      5-min Rain = 0
KTH1 070721Z 17009KT 28/16 A2994 RMK A01 T02800161  RH  048%=      5-min Rain = 0
KTH1 070722Z 17008KT 28/16 A2994 RMK A01 T02790160  RH  048%=      5-min Rain = 0
KTH1 070723Z 17008KT 28/16 A2994 RMK A01 T02800160  RH  048%=      5-min Rain = 0
KTH1 070724Z 17007G12KT 28/16 A2994 RMK A01 T02800161  RH  048%=      5-min Rain = 0
KTH1 070725Z 17009KT 28/16 A2993 RMK A01 T02800161  RH  048%=      5-min Rain = 0
KTH1 070726Z 17007G12KT 28/16 A2993 RMK A01 T02800161  RH  048%=      5-min Rain = 0
KTH1 070727Z 17007KT 28/16 A2993 RMK A01 T02810162  RH  048%=      5-min Rain = 0
KTH1 070728Z 17010KT 28/16 A2993 RMK A01 T02810162  RH  048%=      5-min Rain = 0
KTH1 070729Z 17009KT 28/16 A2993 RMK A01 T02800162  RH  048%=      5-min Rain = 0
KTH1 070730Z 17009KT 28/16 A2993 RMK A01 T02810162  RH  048%=      5-min Rain = 0
KTH1 070731Z 17011KT 28/16 A2993 RMK A01 T02800162  RH  049%=      5-min Rain = 0
KTH1 070732Z 17010KT 28/16 A2993 RMK A01 T02810162  RH  048%=      5-min Rain = 0
KTH1 070733Z 17009KT 28/16 A2993 RMK A01 T02810162  RH  048%=      5-min Rain = 0
KTH1 070734Z 17007KT 28/16 A2993 RMK A01 T02820162  RH  048%=      5-min Rain = 0
KTH1 070735Z 17008KT 28/16 A2993 RMK A01 T02820163  RH  048%=      5-min Rain = 0
KTH1 070736Z 17008KT 28/16 A2993 RMK A01 T02810163  RH  048%=      5-min Rain = 0
KTH1 070737Z 17007KT 28/16 A2993 RMK A01 T02810163  RH  049%=      5-min Rain = 0
KTH1 070738Z 16009KT 28/16 A2993 RMK A01 T02810163  RH  049%=      5-min Rain = 0
KTH1 070739Z 16008KT 28/16 A2993 RMK A01 T02810163  RH  049%=      5-min Rain = 0
KTH1 070740Z 16008KT 28/16 A2993 RMK A01 T02800163  RH  049%=      5-min Rain = 0
KTH1 070741Z 17006KT 28/16 A2993 RMK A01 T02810163  RH  049%=      5-min Rain = 0
KTH1 070742Z 16008KT 28/16 A2993 RMK A01 T02810163  RH  049%=      5-min Rain = 0
KTH1 070743Z 16007KT 28/16 A2993 RMK A01 T02800163  RH  049%=      5-min Rain = 0
KTH1 070744Z 16008KT 28/16 A2993 RMK A01 T02800163  RH  049%=      5-min Rain = 0
KTH1 070745Z 16007KT 28/16 A2993 RMK A01 T02790163  RH  049%=      5-min Rain = 0
KTH1 070746Z 16008KT 28/16 A2993 RMK A01 T02790163  RH  050%=      5-min Rain = 0
KTH1 070747Z 16007KT 28/16 A2993 RMK A01 T02780163  RH  050%=      5-min Rain = 0
KTH1 070748Z 16007KT 28/16 A2993 RMK A01 T02780164  RH  050%=      5-min Rain = 0
KTH1 070749Z 16008KT 28/16 A2993 RMK A01 T02770164  RH  050%=      5-min Rain = 0
KTH1 070750Z 16006KT 28/16 A2993 RMK A01 T02770164  RH  050%=      5-min Rain = 0
KTH1 070751Z 16007KT 28/16 A2993 RMK A01 T02760164  RH  050%=      5-min Rain = 0
KTH1 070752Z 17008KT 28/16 A2993 RMK A01 T02760164  RH  050%=      5-min Rain = 0
KTH1 070753Z 16007KT 28/16 A2993 RMK A01 T02760164  RH  050%=      5-min Rain = 0
KTH1 070754Z 16006KT 28/16 A2993 RMK A01 T02760164  RH  050%=      5-min Rain = 0
KTH1 070755Z 16005KT 28/16 A2993 RMK A01 T02760164  RH  051%=      5-min Rain = 0
KTH1 070756Z 16007KT 28/16 A2994 RMK A01 T02750164  RH  051%=      5-min Rain = 0
KTH1 070757Z 15006KT 28/16 A2994 RMK A01 T02750164  RH  051%=      5-min Rain = 0
KTH1 070758Z 16007KT 27/16 A2994 RMK A01 T02740164  RH  051%=      5-min Rain = 0
KTH1 070759Z 16007KT 27/16 A2994 RMK A01 T02730164  RH  051%=      5-min Rain = 0
KTH1 070800Z 15006KT 27/16 A2994 RMK A01 T02730164  RH  051%=      5-min Rain = 0
KTH1 070801Z 15007KT 27/16 A2994 RMK A01 T02730164  RH  051%=      5-min Rain = 0
KTH1 070802Z 16006KT 27/16 A2994 RMK A01 T02720164  RH  052%=      5-min Rain = 0
KTH1 070803Z 16007KT 27/16 A2994 RMK A01 T02720164  RH  052%=      5-min Rain = 0
KTH1 070804Z 16007KT 27/16 A2993 RMK A01 T02710164  RH  052%=      5-min Rain = 0
KTH1 070805Z 17006KT 27/16 A2993 RMK A01 T02700164  RH  052%=      5-min Rain = 0
KTH1 070806Z 16008KT 27/16 A2993 RMK A01 T02700164  RH  052%=      5-min Rain = 0
KTH1 070807Z 16008KT 27/16 A2993 RMK A01 T02710164  RH  052%=      5-min Rain = 0
KTH1 070808Z 16007KT 27/16 A2993 RMK A01 T02700164  RH  052%=      5-min Rain = 0
KTH1 070809Z 16006KT 27/16 A2993 RMK A01 T02700164  RH  052%=      5-min Rain = 0
KTH1 070810Z 15007KT 27/16 A2993 RMK A01 T02700164  RH  052%=      5-min Rain = 0
KTH1 070811Z 16006KT 27/16 A2993 RMK A01 T02690164  RH  052%=      5-min Rain = 0
KTH1 070812Z 16007KT 27/16 A2993 RMK A01 T02690164  RH  052%=      5-min Rain = 0
KTH1 070813Z 16007KT 27/16 A2993 RMK A01 T02690164  RH  053%=      5-min Rain = 0
KTH1 070814Z 16007KT 27/16 A2993 RMK A01 T02690164  RH  053%=      5-min Rain = 0
KTH1 070815Z 16008KT 27/16 A2993 RMK A01 T02690164  RH  053%=      5-min Rain = 0
KTH1 070816Z 16007KT 27/16 A2993 RMK A01 T02680164  RH  053%=      5-min Rain = 0
KTH1 070817Z 16008KT 27/16 A2993 RMK A01 T02690164  RH  053%=      5-min Rain = 0
KTH1 070818Z 15007KT 27/16 A2993 RMK A01 T02690164  RH  053%=      5-min Rain = 0
KTH1 070819Z 16007KT 27/16 A2994 RMK A01 T02690164  RH  053%=      5-min Rain = 0
KTH1 070820Z 16007KT 27/17 A2994 RMK A01 T02690165  RH  053%=      5-min Rain = 0
KTH1 070821Z 15006KT 27/17 A2994 RMK A01 T02690165  RH  053%=      5-min Rain = 0
KTH1 070822Z 15006KT 27/17 A2994 RMK A01 T02680165  RH  053%=      5-min Rain = 0
KTH1 070823Z 16007KT 27/17 A2994 RMK A01 T02680165  RH  053%=      5-min Rain = 0
KTH1 070824Z 15007KT 27/17 A2994 RMK A01 T02670165  RH  053%=      5-min Rain = 0
KTH1 070825Z 16007KT 27/17 A2994 RMK A01 T02670165  RH  053%=      5-min Rain = 0
KTH1 070826Z 15007KT 27/17 A2994 RMK A01 T02670165  RH  054%=      5-min Rain = 0
KTH1 070827Z 15006KT 27/17 A2994 RMK A01 T02670165  RH  054%=      5-min Rain = 0
KTH1 070828Z 15006KT 27/17 A2994 RMK A01 T02660165  RH  054%=      5-min Rain = 0
KTH1 070829Z 15007KT 27/17 A2994 RMK A01 T02650165  RH  054%=      5-min Rain = 0
KTH1 070830Z 15007KT 27/17 A2994 RMK A01 T02650165  RH  054%=      5-min Rain = 0
KTH1 070831Z 16008KT 26/17 A2994 RMK A01 T02640165  RH  054%=      5-min Rain = 0
KTH1 070832Z 16007KT 26/17 A2994 RMK A01 T02640165  RH  054%=      5-min Rain = 0
KTH1 070833Z 16007KT 26/17 A2994 RMK A01 T02640165  RH  055%=      5-min Rain = 0
KTH1 070834Z 16006KT 26/17 A2994 RMK A01 T02640165  RH  055%=      5-min Rain = 0
KTH1 070835Z 15006KT 26/17 A2994 RMK A01 T02630165  RH  055%=      5-min Rain = 0
KTH1 070836Z 15006KT 26/17 A2994 RMK A01 T02630165  RH  055%=      5-min Rain = 0
KTH1 070837Z 15006KT 26/17 A2994 RMK A01 T02620165  RH  055%=      5-min Rain = 0
KTH1 070838Z 15007KT 26/17 A2994 RMK A01 T02620165  RH  055%=      5-min Rain = 0
KTH1 070839Z 15007KT 26/17 A2993 RMK A01 T02620165  RH  055%=      5-min Rain = 0
KTH1 070840Z 16007KT 26/17 A2993 RMK A01 T02610165  RH  055%=      5-min Rain = 0
KTH1 070841Z 16007KT 26/17 A2993 RMK A01 T02610165  RH  056%=      5-min Rain = 0
KTH1 070842Z 16006KT 26/17 A2993 RMK A01 T02610165  RH  056%=      5-min Rain = 0
KTH1 070843Z 16008KT 26/17 A2993 RMK A01 T02600165  RH  056%=      5-min Rain = 0
KTH1 070844Z 16007KT 26/17 A2993 RMK A01 T02600165  RH  056%=      5-min Rain = 0
KTH1 070845Z 16006KT 26/17 A2993 RMK A01 T02600165  RH  056%=      5-min Rain = 0
KTH1 070846Z 16006KT 26/17 A2993 RMK A01 T02590165  RH  056%=      5-min Rain = 0
KTH1 070847Z 16008KT 26/17 A2993 RMK A01 T02590165  RH  056%=      5-min Rain = 0
KTH1 070848Z 16008KT 26/17 A2993 RMK A01 T02590165  RH  056%=      5-min Rain = 0
KTH1 070849Z 16007KT 26/17 A2993 RMK A01 T02590165  RH  056%=      5-min Rain = 0
KTH1 070850Z 16006KT 26/17 A2993 RMK A01 T02590165  RH  056%=      5-min Rain = 0
KTH1 070851Z 16007KT 26/17 A2993 RMK A01 T02590165  RH  056%=      5-min Rain = 0
KTH1 070852Z 16007KT 26/17 A2993 RMK A01 T02590166  RH  056%=      5-min Rain = 0
KTH1 070853Z 16007KT 26/17 A2993 RMK A01 T02590165  RH  056%=      5-min Rain = 0
KTH1 070854Z 16008KT 26/17 A2993 RMK A01 T02590166  RH  056%=      5-min Rain = 0
KTH1 070855Z 16006KT 26/17 A2993 RMK A01 T02590166  RH  057%=      5-min Rain = 0
KTH1 070856Z 15006KT 26/17 A2994 RMK A01 T02580166  RH  057%=      5-min Rain = 0
KTH1 070857Z 15008KT 26/17 A2994 RMK A01 T02580166  RH  057%=      5-min Rain = 0
KTH1 070858Z 16006KT 26/17 A2994 RMK A01 T02570166  RH  057%=      5-min Rain = 0
KTH1 070859Z 16008KT 26/17 A2994 RMK A01 T02570166  RH  057%=      5-min Rain = 0
KTH1 070900Z 16007KT 26/17 A2994 RMK A01 T02570166  RH  057%=      5-min Rain = 0
KTH1 070901Z 15007KT 26/17 A2994 RMK A01 T02560166  RH  057%=      5-min Rain = 0
KTH1 070902Z 16008KT 26/17 A2994 RMK A01 T02560165  RH  057%=      5-min Rain = 0
KTH1 070903Z 15007KT 26/17 A2994 RMK A01 T02550166  RH  058%=      5-min Rain = 0
KTH1 070904Z 16008KT 26/17 A2994 RMK A01 T02550166  RH  058%=      5-min Rain = 0
KTH1 070905Z 16007KT 26/17 A2994 RMK A01 T02550166  RH  058%=      5-min Rain = 0
KTH1 070906Z 16007KT 26/17 A2994 RMK A01 T02550166  RH  058%=      5-min Rain = 0
KTH1 070907Z 16007KT 25/17 A2994 RMK A01 T02540166  RH  058%=      5-min Rain = 0
KTH1 070908Z 16007KT 25/17 A2994 RMK A01 T02540166  RH  058%=      5-min Rain = 0
KTH1 070909Z 16007KT 25/17 A2994 RMK A01 T02540166  RH  058%=      5-min Rain = 0
KTH1 070910Z 16007KT 25/17 A2994 RMK A01 T02530166  RH  058%=      5-min Rain = 0
KTH1 070911Z 16006KT 25/17 A2994 RMK A01 T02530166  RH  058%=      5-min Rain = 0
KTH1 070912Z 16008KT 25/17 A2994 RMK A01 T02530166  RH  059%=      5-min Rain = 0
KTH1 070913Z 16007KT 25/17 A2994 RMK A01 T02530166  RH  059%=      5-min Rain = 0
KTH1 070914Z 16007KT 25/17 A2994 RMK A01 T02530166  RH  059%=      5-min Rain = 0
KTH1 070915Z 16006KT 25/17 A2994 RMK A01 T02530166  RH  059%=      5-min Rain = 0
KTH1 070916Z 16006KT 25/17 A2994 RMK A01 T02520166  RH  059%=      5-min Rain = 0
KTH1 070917Z 16007KT 25/17 A2994 RMK A01 T02520167  RH  059%=      5-min Rain = 0
KTH1 070918Z 16008KT 25/17 A2994 RMK A01 T02520166  RH  059%=      5-min Rain = 0
KTH1 070919Z 16007KT 25/17 A2994 RMK A01 T02520167  RH  059%=      5-min Rain = 0
KTH1 070920Z 16006KT 25/17 A2994 RMK A01 T02520167  RH  059%=      5-min Rain = 0
KTH1 070921Z 16007KT 25/17 A2994 RMK A01 T02520167  RH  059%=      5-min Rain = 0
KTH1 070922Z 16006KT 25/17 A2994 RMK A01 T02520167  RH  059%=      5-min Rain = 0
KTH1 070923Z 17007KT 25/17 A2994 RMK A01 T02520166  RH  059%=      5-min Rain = 0
KTH1 070924Z 17005KT 25/17 A2994 RMK A01 T02520167  RH  059%=      5-min Rain = 0
KTH1 070925Z 17005KT 25/17 A2994 RMK A01 T02520167  RH  059%=      5-min Rain = 0
KTH1 070926Z 18005KT 25/17 A2994 RMK A01 T02520167  RH  059%=      5-min Rain = 0
KTH1 070927Z 17005KT 25/17 A2994 RMK A01 T02520168  RH  059%=      5-min Rain = 0
KTH1 070928Z 17006KT 25/17 A2994 RMK A01 T02520168  RH  059%=      5-min Rain = 0
KTH1 070929Z 18006KT 25/17 A2994 RMK A01 T02520168  RH  059%=      5-min Rain = 0
KTH1 070930Z 18007KT 25/17 A2994 RMK A01 T02520168  RH  059%=      5-min Rain = 0
KTH1 070931Z 18008KT 25/17 A2994 RMK A01 T02520167  RH  059%=      5-min Rain = 0
KTH1 070932Z 17007KT 25/17 A2994 RMK A01 T02530168  RH  059%=      5-min Rain = 0
KTH1 070933Z 17006KT 25/17 A2994 RMK A01 T02530168  RH  059%=      5-min Rain = 0
KTH1 070934Z 18005KT 25/17 A2994 RMK A01 T02540168  RH  059%=      5-min Rain = 0
KTH1 070935Z 17006KT 25/17 A2994 RMK A01 T02540168  RH  059%=      5-min Rain = 0
KTH1 070936Z 17006KT 25/17 A2994 RMK A01 T02540168  RH  059%=      5-min Rain = 0
KTH1 070937Z 17006KT 25/17 A2994 RMK A01 T02540168  RH  059%=      5-min Rain = 0
KTH1 070938Z 17007KT 26/17 A2994 RMK A01 T02550168  RH  059%=      5-min Rain = 0
KTH1 070939Z 17006KT 26/17 A2994 RMK A01 T02550168  RH  059%=      5-min Rain = 0
KTH1 070940Z 17006KT 26/17 A2994 RMK A01 T02550168  RH  059%=      5-min Rain = 0
KTH1 070941Z 18007KT 26/17 A2994 RMK A01 T02550168  RH  059%=      5-min Rain = 0
KTH1 070942Z 17004KT 26/17 A2994 RMK A01 T02550168  RH  059%=      5-min Rain = 0
KTH1 070943Z 18009KT 26/17 A2994 RMK A01 T02550168  RH  059%=      5-min Rain = 0
KTH1 070944Z 18007KT 26/17 A2994 RMK A01 T02560169  RH  058%=      5-min Rain = 0
KTH1 070945Z 18007KT 26/17 A2994 RMK A01 T02580169  RH  058%=      5-min Rain = 0
KTH1 070946Z 18007KT 26/17 A2994 RMK A01 T02580169  RH  058%=      5-min Rain = 0
KTH1 070947Z 18006KT 26/17 A2994 RMK A01 T02590169  RH  058%=      5-min Rain = 0
KTH1 070948Z 18006G11KT 26/17 A2995 RMK A01 T02600170  RH  058%=      5-min Rain = 0
KTH1 070949Z 18007G12KT 26/17 A2995 RMK A01 T02590170  RH  058%=      5-min Rain = 0
KTH1 070950Z 18008KT 26/17 A2995 RMK A01 T02600170  RH  058%=      5-min Rain = 0
KTH1 070951Z 18007KT 26/17 A2995 RMK A01 T02600171  RH  058%=      5-min Rain = 0
KTH1 070952Z 18008KT 26/17 A2995 RMK A01 T02610171  RH  058%=      5-min Rain = 0
KTH1 070953Z 18009KT 26/17 A2995 RMK A01 T02610171  RH  057%=      5-min Rain = 0
KTH1 070954Z 18009KT 26/17 A2995 RMK A01 T02620171  RH  057%=      5-min Rain = 0
KTH1 070955Z 18007KT 26/17 A2995 RMK A01 T02620171  RH  057%=      5-min Rain = 0
KTH1 070956Z 17007G13KT 26/17 A2995 RMK A01 T02620172  RH  057%=      5-min Rain = 0
KTH1 070957Z 18009KT 26/17 A2995 RMK A01 T02620172  RH  057%=      5-min Rain = 0
KTH1 070958Z 18010KT 26/17 A2995 RMK A01 T02620172  RH  058%=      5-min Rain = 0
KTH1 070959Z 18011KT 26/17 A2995 RMK A01 T02630172  RH  057%=      5-min Rain = 0
KTH1 071000Z 18009KT 26/17 A2995 RMK A01 T02630173  RH  057%=      5-min Rain = 0
KTH1 071001Z 17007KT 26/17 A2995 RMK A01 T02640173  RH  057%=      5-min Rain = 0
KTH1 071002Z 18010KT 26/17 A2995 RMK A01 T02640173  RH  057%=      5-min Rain = 0
KTH1 071003Z 17008G13KT 26/17 A2995 RMK A01 T02640173  RH  057%=      5-min Rain = 0
KTH1 071004Z 17010KT 26/17 A2995 RMK A01 T02640173  RH  057%=      5-min Rain = 0
KTH1 071005Z 17010KT 26/17 A2995 RMK A01 T02640173  RH  057%=      5-min Rain = 0
KTH1 071006Z 17007G12KT 26/17 A2995 RMK A01 T02640173  RH  057%=      5-min Rain = 0
KTH1 071007Z 17010KT 26/17 A2995 RMK A01 T02640173  RH  057%=      5-min Rain = 0
KTH1 071008Z 17009G16KT 26/17 A2995 RMK A01 T02640174  RH  058%=      5-min Rain = 0
KTH1 071009Z 17010KT 26/17 A2995 RMK A01 T02640174  RH  058%=      5-min Rain = 0
KTH1 071010Z 17010G15KT 26/17 A2995 RMK A01 T02640174  RH  058%=      5-min Rain = 0
KTH1 071011Z 17009KT 26/17 A2995 RMK A01 T02640174  RH  058%=      5-min Rain = 0
KTH1 071012Z 17009G14KT 26/17 A2995 RMK A01 T02640174  RH  058%=      5-min Rain = 0
KTH1 071013Z 17008KT 26/17 A2995 RMK A01 T02640174  RH  058%=      5-min Rain = 0
KTH1 071014Z 17008KT 26/17 A2995 RMK A01 T02630174  RH  058%=      5-min Rain = 0
KTH1 071015Z 17008KT 26/18 A2995 RMK A01 T02630175  RH  058%=      5-min Rain = 0
KTH1 071016Z 18007KT 26/18 A2995 RMK A01 T02630175  RH  058%=      5-min Rain = 0
KTH1 071017Z 17008KT 26/18 A2995 RMK A01 T02620175  RH  059%=      5-min Rain = 0
KTH1 071018Z 17009G14KT 26/18 A2995 RMK A01 T02610175  RH  059%=      5-min Rain = 0
KTH1 071019Z 18008KT 26/18 A2995 RMK A01 T02610175  RH  059%=      5-min Rain = 0
KTH1 071020Z 18009KT 26/18 A2995 RMK A01 T02610175  RH  059%=      5-min Rain = 0
KTH1 071021Z 17008KT 26/18 A2995 RMK A01 T02610175  RH  059%=      5-min Rain = 0
KTH1 071022Z 17008KT 26/18 A2995 RMK A01 T02610175  RH  059%=      5-min Rain = 0
KTH1 071023Z 17010G15KT 26/18 A2995 RMK A01 T02610175  RH  059%=      5-min Rain = 0
KTH1 071024Z 17010KT 26/18 A2995 RMK A01 T02610175  RH  059%=      5-min Rain = 0
KTH1 071025Z 17008KT 26/18 A2995 RMK A01 T02610175  RH  059%=      5-min Rain = 0
KTH1 071026Z 17009KT 26/18 A2995 RMK A01 T02610176  RH  059%=      5-min Rain = 0
KTH1 071027Z 18008KT 26/18 A2995 RMK A01 T02610176  RH  059%=      5-min Rain = 0
KTH1 071028Z 18010G15KT 26/18 A2995 RMK A01 T02610176  RH  060%=      5-min Rain = 0
KTH1 071029Z 18008G13KT 26/18 A2995 RMK A01 T02610176  RH  060%=      5-min Rain = 0
KTH1 071030Z 18009G16KT 26/18 A2995 RMK A01 T02610176  RH  060%=      5-min Rain = 0
KTH1 071031Z 17006G11KT 26/18 A2995 RMK A01 T02610176  RH  060%=      5-min Rain = 0
KTH1 071032Z 18008KT 26/18 A2995 RMK A01 T02610176  RH  060%=      5-min Rain = 0
KTH1 071033Z 17008KT 26/18 A2995 RMK A01 T02600177  RH  060%=      5-min Rain = 0
KTH1 071034Z 17009KT 26/18 A2995 RMK A01 T02600176  RH  060%=      5-min Rain = 0
KTH1 071035Z 18008KT 26/18 A2995 RMK A01 T02590177  RH  060%=      5-min Rain = 0
KTH1 071036Z 17009KT 26/18 A2995 RMK A01 T02590177  RH  060%=      5-min Rain = 0
KTH1 071037Z 18010KT 26/18 A2995 RMK A01 T02590177  RH  060%=      5-min Rain = 0
KTH1 071038Z 18008KT 26/18 A2995 RMK A01 T02590176  RH  060%=      5-min Rain = 0
KTH1 071039Z 17009KT 26/18 A2995 RMK A01 T02590177  RH  060%=      5-min Rain = 0
KTH1 071040Z 18009G14KT 26/18 A2995 RMK A01 T02590178  RH  061%=      5-min Rain = 0
KTH1 071041Z 17005KT 26/18 A2995 RMK A01 T02590177  RH  061%=      5-min Rain = 0
KTH1 071042Z 17008G13KT 26/18 A2995 RMK A01 T02590178  RH  061%=      5-min Rain = 0
KTH1 071043Z 16008KT 26/18 A2995 RMK A01 T02590178  RH  061%=      5-min Rain = 0
KTH1 071044Z 18007KT 26/18 A2995 RMK A01 T02590178  RH  061%=      5-min Rain = 0
KTH1 071045Z 17008KT 26/18 A2995 RMK A01 T02580178  RH  061%=      5-min Rain = 0
KTH1 071046Z 17007KT 26/18 A2995 RMK A01 T02590178  RH  061%=      5-min Rain = 0
KTH1 071047Z 17007G12KT 26/18 A2995 RMK A01 T02580178  RH  061%=      5-min Rain = 0
KTH1 071048Z 17007G13KT 26/18 A2995 RMK A01 T02580178  RH  061%=      5-min Rain = 0
KTH1 071049Z 17007KT 26/18 A2995 RMK A01 T02570178  RH  062%=      5-min Rain = 0
KTH1 071050Z 17005KT 26/18 A2995 RMK A01 T02580179  RH  062%=      5-min Rain = 0
KTH1 071051Z 17007G12KT 26/18 A2996 RMK A01 T02570178  RH  062%=      5-min Rain = 0
KTH1 071052Z 16009KT 26/18 A2996 RMK A01 T02570179  RH  062%=      5-min Rain = 0
KTH1 071053Z 17009KT 26/18 A2996 RMK A01 T02570179  RH  062%=      5-min Rain = 0
KTH1 071054Z 16009KT 26/18 A2996 RMK A01 T02570179  RH  062%=      5-min Rain = 0
KTH1 071055Z 17007KT 26/18 A2996 RMK A01 T02580179  RH  062%=      5-min Rain = 0
KTH1 071056Z 18006KT 26/18 A2996 RMK A01 T02580179  RH  062%=      5-min Rain = 0
KTH1 071057Z 17006KT 26/18 A2996 RMK A01 T02570179  RH  062%=      5-min Rain = 0
KTH1 071058Z 17007KT 26/18 A2996 RMK A01 T02570180  RH  062%=      5-min Rain = 0
KTH1 071059Z 18007KT 26/18 A2996 RMK A01 T02570179  RH  062%=      5-min Rain = 0
KTH1 071100Z 17007KT 26/18 A2996 RMK A01 T02570180  RH  062%=      5-min Rain = 0
KTH1 071101Z 16006KT 26/18 A2996 RMK A01 T02560179  RH  063%=      5-min Rain = 0
KTH1 071102Z 17007KT 26/18 A2996 RMK A01 T02550180  RH  063%=      5-min Rain = 0
KTH1 071103Z 17006KT 26/18 A2996 RMK A01 T02550179  RH  063%=      5-min Rain = 0
KTH1 071104Z 18005KT 26/18 A2996 RMK A01 T02550180  RH  063%=      5-min Rain = 0
KTH1 071105Z 17006KT 25/18 A2996 RMK A01 T02540180  RH  063%=      5-min Rain = 0
KTH1 071106Z 17008KT 25/18 A2996 RMK A01 T02540180  RH  064%=      5-min Rain = 0
KTH1 071107Z 17008KT 25/18 A2996 RMK A01 T02540180  RH  064%=      5-min Rain = 0
KTH1 071108Z 17007KT 25/18 A2996 RMK A01 T02540180  RH  064%=      5-min Rain = 0
KTH1 071109Z 17006KT 25/18 A2996 RMK A01 T02540180  RH  064%=      5-min Rain = 0
KTH1 071110Z 18007G12KT 25/18 A2996 RMK A01 T02540180  RH  064%=      5-min Rain = 0
KTH1 071111Z 17008KT 25/18 A2996 RMK A01 T02540181  RH  064%=      5-min Rain = 0
KTH1 071112Z 17007KT 25/18 A2996 RMK A01 T02540181  RH  064%=      5-min Rain = 0
KTH1 071113Z 18008KT 25/18 A2996 RMK A01 T02540181  RH  064%=      5-min Rain = 0
KTH1 071114Z 18007KT 25/18 A2996 RMK A01 T02540181  RH  064%=      5-min Rain = 0
KTH1 071115Z 18008KT 25/18 A2996 RMK A01 T02540181  RH  064%=      5-min Rain = 0
KTH1 071116Z 17008KT 25/18 A2996 RMK A01 T02540181  RH  064%=      5-min Rain = 0
KTH1 071117Z 18008KT 25/18 A2997 RMK A01 T02540181  RH  064%=      5-min Rain = 0
KTH1 071118Z 18006KT 25/18 A2997 RMK A01 T02530181  RH  064%=      5-min Rain = 0
KTH1 071119Z 17007KT 25/18 A2997 RMK A01 T02530181  RH  064%=      5-min Rain = 0
KTH1 071120Z 18007KT 25/18 A2997 RMK A01 T02530182  RH  064%=      5-min Rain = 0
KTH1 071121Z 18007KT 25/18 A2997 RMK A01 T02530182  RH  064%=      5-min Rain = 0
KTH1 071122Z 17007KT 25/18 A2997 RMK A01 T02540182  RH  064%=      5-min Rain = 0
KTH1 071123Z 17008KT 25/18 A2997 RMK A01 T02530182  RH  065%=      5-min Rain = 0
KTH1 071124Z 19008KT 25/18 A2997 RMK A01 T02530182  RH  065%=      5-min Rain = 0
KTH1 071125Z 18008KT 25/18 A2997 RMK A01 T02530182  RH  065%=      5-min Rain = 0
KTH1 071126Z 19007KT 25/18 A2997 RMK A01 T02530182  RH  065%=      5-min Rain = 0
KTH1 071127Z 19008KT 25/18 A2997 RMK A01 T02530182  RH  065%=      5-min Rain = 0
KTH1 071128Z 19008KT 25/18 A2997 RMK A01 T02530182  RH  065%=      5-min Rain = 0
KTH1 071129Z 18007KT 25/18 A2997 RMK A01 T02530182  RH  065%=      5-min Rain = 0
KTH1 071130Z 19007KT 25/18 A2997 RMK A01 T02530183  RH  065%=      5-min Rain = 0
KTH1 071131Z 18006KT 25/18 A2997 RMK A01 T02530183  RH  065%=      5-min Rain = 0
KTH1 071132Z 19007KT 25/18 A2997 RMK A01 T02530182  RH  065%=      5-min Rain = 0
KTH1 071133Z 18008KT 25/18 A2997 RMK A01 T02520183  RH  065%=      5-min Rain = 0
KTH1 071134Z 18007KT 25/18 A2997 RMK A01 T02520182  RH  065%=      5-min Rain = 0
KTH1 071135Z 18006KT 25/18 A2997 RMK A01 T02520183  RH  065%=      5-min Rain = 0
KTH1 071136Z 18008KT 25/18 A2997 RMK A01 T02520183  RH  065%=      5-min Rain = 0
KTH1 071137Z 18007KT 25/18 A2997 RMK A01 T02520183  RH  066%=      5-min Rain = 0
KTH1 071138Z 17006KT 25/18 A2997 RMK A01 T02520183  RH  066%=      5-min Rain = 0
KTH1 071139Z 18008KT 25/18 A2997 RMK A01 T02510183  RH  066%=      5-min Rain = 0
KTH1 071140Z 18007KT 25/18 A2997 RMK A01 T02510183  RH  066%=      5-min Rain = 0
KTH1 071141Z 18006KT 25/18 A2997 RMK A01 T02510183  RH  066%=      5-min Rain = 0
KTH1 071142Z 17006KT 25/18 A2997 RMK A01 T02510183  RH  066%=      5-min Rain = 0
KTH1 071143Z 18008KT 25/18 A2997 RMK A01 T02510183  RH  066%=      5-min Rain = 0
KTH1 071144Z 18007KT 25/18 A2997 RMK A01 T02510183  RH  066%=      5-min Rain = 0
KTH1 071145Z 18006KT 25/18 A2997 RMK A01 T02510183  RH  066%=      5-min Rain = 0
KTH1 071146Z 18006KT 25/18 A2997 RMK A01 T02510183  RH  066%=      5-min Rain = 0
KTH1 071147Z 18007KT 25/18 A2997 RMK A01 T02510183  RH  066%=      5-min Rain = 0
KTH1 071148Z 18007KT 25/18 A2998 RMK A01 T02500183  RH  066%=      5-min Rain = 0
KTH1 071149Z 18007KT 25/18 A2998 RMK A01 T02500184  RH  067%=      5-min Rain = 0
KTH1 071150Z 18006KT 25/18 A2998 RMK A01 T02500183  RH  067%=      5-min Rain = 0
KTH1 071151Z 18005KT 25/18 A2998 RMK A01 T02500184  RH  067%=      5-min Rain = 0
KTH1 071152Z 18006KT 25/18 A2998 RMK A01 T02500184  RH  067%=      5-min Rain = 0
KTH1 071153Z 18005KT 25/18 A2998 RMK A01 T02500184  RH  067%=      5-min Rain = 0
KTH1 071154Z 18007KT 25/18 A2998 RMK A01 T02490184  RH  067%=      5-min Rain = 0
KTH1 071155Z 18006KT 25/18 A2998 RMK A01 T02490184  RH  067%=      5-min Rain = 0
KTH1 071156Z 18007KT 25/18 A2998 RMK A01 T02500184  RH  067%=      5-min Rain = 0
KTH1 071157Z 18007KT 25/18 A2998 RMK A01 T02490184  RH  067%=      5-min Rain = 0
KTH1 071158Z 18005KT 25/18 A2998 RMK A01 T02490184  RH  067%=      5-min Rain = 0
KTH1 071159Z 18005KT 25/18 A2998 RMK A01 T02490184  RH  067%=      5-min Rain = 0
KTH1 071200Z 18006KT 25/18 A2998 RMK A01 T02490184  RH  067%=      5-min Rain = 0
KTH1 071201Z 19005KT 25/18 A2998 RMK A01 T02490184  RH  067%=      5-min Rain = 0
KTH1 071202Z 19004KT 25/19 A2998 RMK A01 T02490185  RH  068%=      5-min Rain = 0
KTH1 071203Z 19006KT 25/19 A2998 RMK A01 T02480185  RH  068%=      5-min Rain = 0
KTH1 071204Z 19006KT 25/19 A2998 RMK A01 T02480185  RH  068%=      5-min Rain = 0
KTH1 071205Z 20005KT 25/19 A2998 RMK A01 T02480185  RH  068%=      5-min Rain = 0
KTH1 071206Z 19006KT 25/19 A2998 RMK A01 T02480185  RH  068%=      5-min Rain = 0
KTH1 071207Z 19005KT 25/19 A2998 RMK A01 T02470185  RH  068%=      5-min Rain = 0
KTH1 071208Z 19006KT 25/19 A2998 RMK A01 T02470186  RH  068%=      5-min Rain = 0
KTH1 071209Z 19005KT 25/19 A2998 RMK A01 T02470185  RH  069%=      5-min Rain = 0
KTH1 071210Z 19005KT 25/19 A2998 RMK A01 T02470185  RH  069%=      5-min Rain = 0
KTH1 071211Z 19005KT 25/19 A2998 RMK A01 T02470186  RH  069%=      5-min Rain = 0
KTH1 071212Z 19005KT 25/19 A2998 RMK A01 T02480186  RH  068%=      5-min Rain = 0
KTH1 071213Z 20004KT 25/19 A2998 RMK A01 T02480186  RH  068%=      5-min Rain = 0
KTH1 071214Z 19004KT 25/19 A2999 RMK A01 T02480187  RH  069%=      5-min Rain = 0
KTH1 071215Z 20005KT 25/19 A2999 RMK A01 T02480187  RH  069%=      5-min Rain = 0
KTH1 071216Z 19005KT 25/19 A2999 RMK A01 T02480187  RH  069%=      5-min Rain = 0
KTH1 071217Z 19005KT 25/19 A2999 RMK A01 T02480187  RH  069%=      5-min Rain = 0
KTH1 071218Z 19005KT 25/19 A2999 RMK A01 T02480187  RH  069%=      5-min Rain = 0
KTH1 071219Z 19005KT 25/19 A2999 RMK A01 T02480187  RH  069%=      5-min Rain = 0
KTH1 071220Z 19004KT 25/19 A2999 RMK A01 T02480187  RH  069%=      5-min Rain = 0
KTH1 071221Z 20006KT 25/19 A2999 RMK A01 T02480187  RH  069%=      5-min Rain = 0
KTH1 071222Z 19005KT 25/19 A2999 RMK A01 T02480187  RH  069%=      5-min Rain = 0
KTH1 071223Z 19005KT 25/19 A2999 RMK A01 T02480187  RH  069%=      5-min Rain = 0
KTH1 071224Z 19005KT 25/19 A2999 RMK A01 T02480188  RH  069%=      5-min Rain = 0
KTH1 071225Z 19006KT 25/19 A2999 RMK A01 T02470188  RH  069%=      5-min Rain = 0
KTH1 071226Z 18005KT 25/19 A2999 RMK A01 T02470188  RH  069%=      5-min Rain = 0
KTH1 071227Z 19005KT 25/19 A2999 RMK A01 T02470188  RH  069%=      5-min Rain = 0
KTH1 071228Z 19004KT 25/19 A2999 RMK A01 T02470188  RH  070%=      5-min Rain = 0
KTH1 071229Z 19004KT 25/19 A2999 RMK A01 T02470188  RH  070%=      5-min Rain = 0
KTH1 071230Z 19005KT 25/19 A2999 RMK A01 T02460188  RH  070%=      5-min Rain = 0
KTH1 071231Z 18005KT 25/19 A2999 RMK A01 T02470188  RH  070%=      5-min Rain = 0
KTH1 071232Z 19004KT 25/19 A2999 RMK A01 T02460188  RH  070%=      5-min Rain = 0
KTH1 071233Z 18006KT 25/19 A2999 RMK A01 T02470188  RH  070%=      5-min Rain = 0
KTH1 071234Z 18004KT 25/19 A30 RMK A01 T02470188  RH  070%=      5-min Rain = 0
KTH1 071235Z 18007KT 25/19 A30 RMK A01 T02460188  RH  070%=      5-min Rain = 0
KTH1 071236Z 19005KT 25/19 A30 RMK A01 T02470188  RH  070%=      5-min Rain = 0
KTH1 071237Z 19004KT 25/19 A30 RMK A01 T02480189  RH  070%=      5-min Rain = 0
KTH1 071238Z 18004KT 25/19 A30 RMK A01 T02480189  RH  070%=      5-min Rain = 0
KTH1 071239Z 19004KT 25/19 A30 RMK A01 T02480189  RH  070%=      5-min Rain = 0
KTH1 071240Z 18005KT 25/19 A30 RMK A01 T02480189  RH  070%=      5-min Rain = 0
KTH1 071241Z 18005KT 25/19 A30 RMK A01 T02480189  RH  070%=      5-min Rain = 0
KTH1 071242Z 18006KT 25/19 A30 RMK A01 T02480190  RH  070%=      5-min Rain = 0
KTH1 071243Z 18006KT 25/19 A30 RMK A01 T02480189  RH  070%=      5-min Rain = 0
KTH1 071244Z 18004KT 25/19 A30 RMK A01 T02480190  RH  070%=      5-min Rain = 0
KTH1 071245Z 18004KT 25/19 A30 RMK A01 T02480190  RH  070%=      5-min Rain = 0
KTH1 071246Z 19005KT 25/19 A30 RMK A01 T02480190  RH  070%=      5-min Rain = 0
KTH1 071247Z 18004KT 25/19 A30 RMK A01 T02480189  RH  070%=      5-min Rain = 0
KTH1 071248Z 20004KT 25/19 A30 RMK A01 T02480190  RH  070%=      5-min Rain = 0
KTH1 071249Z 18005KT 25/19 A30 RMK A01 T02480190  RH  070%=      5-min Rain = 0
KTH1 071250Z 19006KT 25/19 A30 RMK A01 T02480189  RH  070%=      5-min Rain = 0
KTH1 071251Z 20004KT 25/19 A30 RMK A01 T02480190  RH  070%=      5-min Rain = 0
KTH1 071252Z 20005KT 25/19 A30 RMK A01 T02480190  RH  070%=      5-min Rain = 0
KTH1 071253Z 19004KT 25/19 A3001 RMK A01 T02480190  RH  070%=      5-min Rain = 0
KTH1 071254Z 21005KT 25/19 A3001 RMK A01 T02480191  RH  070%=      5-min Rain = 0
KTH1 071255Z 20005KT 25/19 A3001 RMK A01 T02480191  RH  070%=      5-min Rain = 0
KTH1 071256Z 19003KT 25/19 A3001 RMK A01 T02480191  RH  070%=      5-min Rain = 0
KTH1 071257Z 19004KT 25/19 A3001 RMK A01 T02480191  RH  071%=      5-min Rain = 0
KTH1 071258Z 19005KT 25/19 A3001 RMK A01 T02480192  RH  071%=      5-min Rain = 0
KTH1 071259Z 19004KT 25/19 A3001 RMK A01 T02490192  RH  071%=      5-min Rain = 0
KTH1 071300Z 20005KT 25/19 A3001 RMK A01 T02480191  RH  071%=      5-min Rain = 0
KTH1 071301Z 20005KT 25/19 A3001 RMK A01 T02490192  RH  071%=      5-min Rain = 0
KTH1 071302Z 20004KT 25/19 A3001 RMK A01 T02490192  RH  071%=      5-min Rain = 0
KTH1 071303Z 20004KT 25/19 A3001 RMK A01 T02490192  RH  071%=      5-min Rain = 0
KTH1 071304Z 21004KT 25/19 A3001 RMK A01 T02490192  RH  071%=      5-min Rain = 0
KTH1 071305Z 21003KT 25/19 A3001 RMK A01 T02500193  RH  071%=      5-min Rain = 0
KTH1 071306Z 20005KT 25/19 A3001 RMK A01 T02510193  RH  070%=      5-min Rain = 0
KTH1 071307Z 21003KT 25/19 A3001 RMK A01 T02520194  RH  070%=      5-min Rain = 0
KTH1 071308Z 20003KT 25/19 A3001 RMK A01 T02530194  RH  070%=      5-min Rain = 0
KTH1 071309Z 20005KT 26/19 A3001 RMK A01 T02550194  RH  069%=      5-min Rain = 0
KTH1 071310Z 19004KT 26/19 A3001 RMK A01 T02560193  RH  068%=      5-min Rain = 0
KTH1 071311Z 19004KT 26/19 A3001 RMK A01 T02570194  RH  068%=      5-min Rain = 0
KTH1 071312Z 19003KT 26/20 A3001 RMK A01 T02580195  RH  068%=      5-min Rain = 0
KTH1 071313Z 20002KT 26/20 A3001 RMK A01 T02590196  RH  068%=      5-min Rain = 0
KTH1 071314Z 20003KT 26/20 A3001 RMK A01 T02590196  RH  068%=      5-min Rain = 0
KTH1 071315Z 19003KT 26/20 A3001 RMK A01 T02610196  RH  067%=      5-min Rain = 0
KTH1 071316Z 18006KT 26/20 A3001 RMK A01 T02620196  RH  067%=      5-min Rain = 0
KTH1 071317Z 18006KT 26/20 A3001 RMK A01 T02620196  RH  067%=      5-min Rain = 0
KTH1 071318Z 19005KT 26/20 A3001 RMK A01 T02630196  RH  067%=      5-min Rain = 0
KTH1 071319Z 19005KT 26/20 A3001 RMK A01 T02640197  RH  067%=      5-min Rain = 0
KTH1 071320Z 18005KT 27/20 A3001 RMK A01 T02650197  RH  067%=      5-min Rain = 0
KTH1 071321Z 19005KT 27/20 A3001 RMK A01 T02660197  RH  066%=      5-min Rain = 0
KTH1 071322Z 19006KT 27/20 A3001 RMK A01 T02660198  RH  066%=      5-min Rain = 0
KTH1 071323Z 20005KT 27/20 A3001 RMK A01 T02670198  RH  066%=      5-min Rain = 0
KTH1 071324Z 18005KT 27/20 A3001 RMK A01 T02680199  RH  066%=      5-min Rain = 0
KTH1 071325Z 18008KT 27/20 A3001 RMK A01 T02690199  RH  065%=      5-min Rain = 0
KTH1 071326Z 18008KT 27/20 A3001 RMK A01 T02690198  RH  065%=      5-min Rain = 0
KTH1 071327Z 19008KT 27/20 A3001 RMK A01 T02690198  RH  065%=      5-min Rain = 0
KTH1 071328Z 18005KT 27/20 A3001 RMK A01 T02690199  RH  065%=      5-min Rain = 0
KTH1 071329Z 18007KT 27/20 A3001 RMK A01 T02680198  RH  065%=      5-min Rain = 0
KTH1 071330Z 19005KT 27/20 A3001 RMK A01 T02690198  RH  065%=      5-min Rain = 0
KTH1 071331Z 18005KT 27/20 A3001 RMK A01 T02690199  RH  066%=      5-min Rain = 0
KTH1 071332Z 18008KT 27/20 A3001 RMK A01 T02700199  RH  065%=      5-min Rain = 0
KTH1 071333Z 17006KT 27/20 A3001 RMK A01 T02710201  RH  066%=      5-min Rain = 0
KTH1 071334Z 18008KT 27/20 A3001 RMK A01 T02710201  RH  065%=      5-min Rain = 0
KTH1 071335Z 19007KT 27/20 A3001 RMK A01 T02720200  RH  065%=      5-min Rain = 0
KTH1 071336Z 18009G15KT 27/20 A3001 RMK A01 T02720201  RH  065%=      5-min Rain = 0
KTH1 071337Z 19009KT 27/20 A3001 RMK A01 T02730201  RH  065%=      5-min Rain = 0
KTH1 071338Z 19008KT 27/20 A3001 RMK A01 T02730201  RH  065%=      5-min Rain = 0
KTH1 071339Z 19008G13KT 27/20 A3001 RMK A01 T02730201  RH  065%=      5-min Rain = 0
KTH1 071340Z 17008KT 27/20 A3002 RMK A01 T02740202  RH  065%=      5-min Rain = 0
KTH1 071341Z 18007KT 27/20 A3002 RMK A01 T02740202  RH  065%=      5-min Rain = 0
KTH1 071342Z 19009KT 28/20 A3002 RMK A01 T02750202  RH  065%=      5-min Rain = 0
KTH1 071343Z 18011KT 28/20 A3002 RMK A01 T02750202  RH  064%=      5-min Rain = 0
KTH1 071344Z 18007KT 28/20 A3002 RMK A01 T02750203  RH  065%=      5-min Rain = 0
KTH1 071345Z 19009KT 28/20 A3002 RMK A01 T02760203  RH  065%=      5-min Rain = 0
KTH1 071346Z 19009KT 28/20 A3002 RMK A01 T02760203  RH  064%=      5-min Rain = 0
KTH1 071347Z 20010KT 28/20 A3002 RMK A01 T02760203  RH  064%=      5-min Rain = 0
KTH1 071348Z 19008KT 28/20 A3002 RMK A01 T02760203  RH  064%=      5-min Rain = 0
KTH1 071349Z 17007KT 28/20 A3002 RMK A01 T02760203  RH  064%=      5-min Rain = 0
KTH1 071350Z 19009KT 28/20 A3002 RMK A01 T02770204  RH  064%=      5-min Rain = 0
KTH1 071351Z 18007G12KT 28/20 A3002 RMK A01 T02780204  RH  064%=      5-min Rain = 0
KTH1 071352Z 18009KT 28/20 A3002 RMK A01 T02780204  RH  064%=      5-min Rain = 0
KTH1 071353Z 18009KT 28/20 A3002 RMK A01 T02780204  RH  064%=      5-min Rain = 0
KTH1 071354Z 18009KT 28/20 A3002 RMK A01 T02790204  RH  064%=      5-min Rain = 0
KTH1 071355Z 19009G15KT 28/21 A3002 RMK A01 T02790205  RH  064%=      5-min Rain = 0
KTH1 071356Z 18008G13KT 28/21 A3002 RMK A01 T02780205  RH  064%=      5-min Rain = 0
KTH1 071357Z 18008KT 28/21 A3002 RMK A01 T02780205  RH  064%=      5-min Rain = 0
KTH1 071358Z 18010KT 28/21 A3002 RMK A01 T02790205  RH  064%=      5-min Rain = 0
KTH1 071359Z 19008G13KT 28/21 A3002 RMK A01 T02800205  RH  064%=      5-min Rain = 0
KTH1 071400Z 19008KT 28/21 A3002 RMK A01 T02800206  RH  064%=      5-min Rain = 0
KTH1 071401Z 19013KT 28/21 A3002 RMK A01 T02790205  RH  064%=      5-min Rain = 0
KTH1 071402Z 18010KT 28/21 A3002 RMK A01 T02800205  RH  064%=      5-min Rain = 0
KTH1 071403Z 18008KT 28/21 A3002 RMK A01 T02790205  RH  064%=      5-min Rain = 0
KTH1 071404Z 18007G12KT 28/21 A3002 RMK A01 T02800206  RH  064%=      5-min Rain = 0
KTH1 071405Z 17007G15KT 28/21 A3002 RMK A01 T02810207  RH  064%=      5-min Rain = 0
KTH1 071406Z 18010KT 28/21 A3002 RMK A01 T02820206  RH  063%=      5-min Rain = 0
KTH1 071407Z 19011G16KT 28/21 A3002 RMK A01 T02820206  RH  063%=      5-min Rain = 0
KTH1 071408Z 19009KT 28/21 A3002 RMK A01 T02830206  RH  063%=      5-min Rain = 0
KTH1 071409Z 17009G15KT 28/21 A3002 RMK A01 T02820207  RH  064%=      5-min Rain = 0
KTH1 071410Z 18012KT 28/21 A3002 RMK A01 T02830206  RH  063%=      5-min Rain = 0
KTH1 071411Z 18011KT 28/21 A3002 RMK A01 T02830206  RH  063%=      5-min Rain = 0
KTH1 071412Z 18008G13KT 28/21 A3002 RMK A01 T02830207  RH  063%=      5-min Rain = 0
KTH1 071413Z 19009KT 28/21 A3002 RMK A01 T02840207  RH  063%=      5-min Rain = 0
KTH1 071414Z 19008G17KT 29/21 A3002 RMK A01 T02850208  RH  063%=      5-min Rain = 0
KTH1 071415Z 19011G16KT 29/21 A3002 RMK A01 T02850207  RH  062%=      5-min Rain = 0
KTH1 071416Z 19008KT 29/21 A3002 RMK A01 T02860208  RH  063%=      5-min Rain = 0
KTH1 071417Z 20008KT 29/21 A3002 RMK A01 T02860208  RH  063%=      5-min Rain = 0
KTH1 071418Z 20008KT 29/21 A3002 RMK A01 T02870207  RH  062%=      5-min Rain = 0
KTH1 071419Z 18008G17KT 29/21 A3002 RMK A01 T02870208  RH  062%=      5-min Rain = 0
KTH1 071420Z 18010KT 29/21 A3002 RMK A01 T02870207  RH  062%=      5-min Rain = 0
KTH1 071421Z 18012KT 29/21 A3002 RMK A01 T02890208  RH  062%=      5-min Rain = 0
KTH1 071422Z 19010KT 29/21 A3002 RMK A01 T02890207  RH  061%=      5-min Rain = 0
KTH1 071423Z 19010KT 29/21 A3002 RMK A01 T02880208  RH  062%=      5-min Rain = 0
KTH1 071424Z 19010G15KT 29/21 A3002 RMK A01 T02870208  RH  062%=      5-min Rain = 0
KTH1 071425Z 18011KT 29/21 A3002 RMK A01 T02860208  RH  063%=      5-min Rain = 0
KTH1 071426Z 18009KT 28/21 A3002 RMK A01 T02840208  RH  063%=      5-min Rain = 0
KTH1 071427Z 18010KT 28/21 A3002 RMK A01 T02840208  RH  063%=      5-min Rain = 0
KTH1 071428Z 18009KT 28/21 A3002 RMK A01 T02830208  RH  064%=      5-min Rain = 0
KTH1 071429Z 18010KT 28/21 A3002 RMK A01 T02820208  RH  064%=      5-min Rain = 0
KTH1 071430Z 19013KT 28/21 A3002 RMK A01 T02820207  RH  064%=      5-min Rain = 0
KTH1 071431Z 18010KT 28/21 A3002 RMK A01 T02810206  RH  064%=      5-min Rain = 0
KTH1 071432Z 18010KT 28/21 A3002 RMK A01 T02810207  RH  064%=      5-min Rain = 0
KTH1 071433Z 18009KT 28/21 A3002 RMK A01 T02800207  RH  064%=      5-min Rain = 0
KTH1 071434Z 18007KT 28/21 A3002 RMK A01 T02790207  RH  065%=      5-min Rain = 0
KTH1 071435Z 19010KT 28/21 A3002 RMK A01 T02800207  RH  065%=      5-min Rain = 0
KTH1 071436Z 20008KT 28/21 A3002 RMK A01 T02800207  RH  064%=      5-min Rain = 0
KTH1 071437Z 19011G16KT 28/21 A3002 RMK A01 T02800207  RH  064%=      5-min Rain = 0
KTH1 071438Z 19011KT 28/21 A3002 RMK A01 T02800207  RH  064%=      5-min Rain = 0
KTH1 071439Z 19012G17KT 28/21 A3002 RMK A01 T02800207  RH  064%=      5-min Rain = 0
KTH1 071440Z 19009G14KT 28/21 A3002 RMK A01 T02800207  RH  065%=      5-min Rain = 0
KTH1 071441Z 19007KT 28/21 A3002 RMK A01 T02800208  RH  065%=      5-min Rain = 0
KTH1 071442Z 19012KT 28/21 A3002 RMK A01 T02800207  RH  065%=      5-min Rain = 0
KTH1 071443Z 19010G15KT 28/21 A3002 RMK A01 T02800207  RH  065%=      5-min Rain = 0
KTH1 071444Z 20008G13KT 28/21 A3002 RMK A01 T02800207  RH  065%=      5-min Rain = 0
KTH1 071445Z 18007KT 28/21 A3002 RMK A01 T02800208  RH  065%=      5-min Rain = 0
KTH1 071446Z 18009KT 28/21 A3002 RMK A01 T02800208  RH  065%=      5-min Rain = 0
KTH1 071447Z 18010G15KT 28/21 A3002 RMK A01 T02810208  RH  065%=      5-min Rain = 0
KTH1 071448Z 19009G16KT 28/21 A3002 RMK A01 T02810208  RH  064%=      5-min Rain = 0
KTH1 071449Z 20010KT 28/21 A3002 RMK A01 T02810208  RH  064%=      5-min Rain = 0
KTH1 071450Z 19010KT 28/21 A3002 RMK A01 T02810208  RH  064%=      5-min Rain = 0
KTH1 071451Z 18009KT 28/21 A3002 RMK A01 T02820208  RH  064%=      5-min Rain = 0
KTH1 071452Z 19007KT 28/21 A3002 RMK A01 T02820209  RH  064%=      5-min Rain = 0
KTH1 071453Z 19008KT 28/21 A3002 RMK A01 T02830209  RH  064%=      5-min Rain = 0
KTH1 071454Z 19006KT 28/21 A3002 RMK A01 T02840210  RH  064%=      5-min Rain = 0
KTH1 071455Z 19008G13KT 29/21 A3002 RMK A01 T02850210  RH  064%=      5-min Rain = 0
KTH1 071456Z 19009G14KT 29/21 A3002 RMK A01 T02860209  RH  063%=      5-min Rain = 0
KTH1 071457Z 18006KT 29/21 A3002 RMK A01 T02870210  RH  063%=      5-min Rain = 0
KTH1 071458Z 19009KT 29/21 A3002 RMK A01 T02880212  RH  063%=      5-min Rain = 0
KTH1 071459Z 18009KT 29/21 A3002 RMK A01 T02890210  RH  062%=      5-min Rain = 0
KTH1 071500Z 18006KT 29/21 A3002 RMK A01 T02900211  RH  062%=      5-min Rain = 0
KTH1 071501Z 17006KT 29/21 A3002 RMK A01 T02910213  RH  063%=      5-min Rain = 0
KTH1 071502Z 18006KT 29/21 A3002 RMK A01 T02940213  RH  062%=      5-min Rain = 0
KTH1 071503Z 18008KT 30/21 A3001 RMK A01 T02960213  RH  061%=      5-min Rain = 0
KTH1 071504Z 17008KT 30/21 A3001 RMK A01 T02990214  RH  060%=      5-min Rain = 0
KTH1 071505Z 18009KT 30/21 A3002 RMK A01 T03020214  RH  059%=      5-min Rain = 0
KTH1 071506Z 18008KT 30/21 A3002 RMK A01 T03040213  RH  059%=      5-min Rain = 0
KTH1 071507Z 18010KT 30/21 A3002 RMK A01 T03040214  RH  059%=      5-min Rain = 0
KTH1 071508Z 18011G16KT 30/21 A3002 RMK A01 T03030213  RH  059%=      5-min Rain = 0
KTH1 071509Z 18015KT 30/21 A3002 RMK A01 T03010211  RH  059%=      5-min Rain = 0
KTH1 071510Z 18009KT 30/21 A3002 RMK A01 T02990211  RH  059%=      5-min Rain = 0
KTH1 071511Z 17008KT 30/21 A3002 RMK A01 T02980212  RH  060%=      5-min Rain = 0
KTH1 071512Z 18006G12KT 30/21 A3002 RMK A01 T02970212  RH  060%=      5-min Rain = 0
KTH1 071513Z 18007KT 30/21 A3002 RMK A01 T02980213  RH  061%=      5-min Rain = 0
KTH1 071514Z 19010KT 30/21 A3002 RMK A01 T02990212  RH  060%=      5-min Rain = 0
KTH1 071515Z 18006KT 30/21 A3002 RMK A01 T02990213  RH  060%=      5-min Rain = 0
KTH1 071516Z 18006G12KT 30/21 A3002 RMK A01 T02990214  RH  060%=      5-min Rain = 0
KTH1 071517Z 19009G14KT 30/21 A3002 RMK A01 T03000212  RH  059%=      5-min Rain = 0
KTH1 071518Z 19009KT 30/21 A3002 RMK A01 T02990212  RH  060%=      5-min Rain = 0
KTH1 071519Z 19006KT 30/21 A3002 RMK A01 T02990214  RH  060%=      5-min Rain = 0
KTH1 071520Z 19009G15KT 30/21 A3002 RMK A01 T02990214  RH  060%=      5-min Rain = 0
KTH1 071521Z 18011KT 30/21 A3002 RMK A01 T03010212  RH  059%=      5-min Rain = 0
KTH1 071522Z 19009G14KT 30/21 A3002 RMK A01 T03020213  RH  059%=      5-min Rain = 0
KTH1 071523Z 20006G12KT 31/21 A3001 RMK A01 T03050214  RH  058%=      5-min Rain = 0
KTH1 071524Z 19010KT 31/21 A3001 RMK A01 T03080214  RH  058%=      5-min Rain = 0
KTH1 071525Z 20010KT 31/21 A3001 RMK A01 T03090214  RH  057%=      5-min Rain = 0
KTH1 071526Z 21010G15KT 31/21 A3001 RMK A01 T03080213  RH  057%=      5-min Rain = 0
KTH1 071527Z 21009G14KT 31/21 A3001 RMK A01 T03050213  RH  058%=      5-min Rain = 0
KTH1 071528Z 21011KT 30/21 A3001 RMK A01 T03040213  RH  058%=      5-min Rain = 0
KTH1 071529Z 20012KT 30/21 A3002 RMK A01 T03030212  RH  058%=      5-min Rain = 0
KTH1 071530Z 20010KT 30/21 A3001 RMK A01 T03030212  RH  058%=      5-min Rain = 0
KTH1 071531Z 19008G15KT 30/21 A3001 RMK A01 T03020213  RH  059%=      5-min Rain = 0
KTH1 071532Z 19010KT 30/21 A3001 RMK A01 T03020212  RH  059%=      5-min Rain = 0
KTH1 071533Z 20009KT 30/21 A3001 RMK A01 T03020212  RH  058%=      5-min Rain = 0
KTH1 071534Z 18007KT 31/21 A3001 RMK A01 T03050214  RH  058%=      5-min Rain = 0
KTH1 071535Z 20010G15KT 31/22 A3002 RMK A01 T03100215  RH  057%=      5-min Rain = 0
KTH1 071536Z 20010KT 31/21 A3002 RMK A01 T03140214  RH  055%=      5-min Rain = 0
KTH1 071537Z 20011KT 32/21 A3002 RMK A01 T03150213  RH  055%=      5-min Rain = 0
KTH1 071538Z 20010G16KT 32/22 A3002 RMK A01 T03150215  RH  055%=      5-min Rain = 0
KTH1 071539Z 20009G17KT 32/21 A3002 RMK A01 T03160213  RH  055%=      5-min Rain = 0
KTH1 071540Z 20008KT 32/21 A3002 RMK A01 T03160214  RH  055%=      5-min Rain = 0
KTH1 071541Z 19010KT 32/21 A3002 RMK A01 T03150214  RH  055%=      5-min Rain = 0
KTH1 071542Z 18010KT 31/21 A3002 RMK A01 T03130213  RH  055%=      5-min Rain = 0
KTH1 071543Z 18013KT 31/21 A3002 RMK A01 T03110212  RH  056%=      5-min Rain = 0
KTH1 071544Z 20008KT 31/21 A3002 RMK A01 T03090212  RH  056%=      5-min Rain = 0
KTH1 071545Z 21008KT 31/21 A3002 RMK A01 T03090213  RH  057%=      5-min Rain = 0
KTH1 071546Z 20010KT 31/21 A3002 RMK A01 T03130214  RH  056%=      5-min Rain = 0
KTH1 071547Z 20010KT 31/21 A3002 RMK A01 T03140214  RH  055%=      5-min Rain = 0
KTH1 071548Z 19010G18KT 32/22 A3002 RMK A01 T03150215  RH  055%=      5-min Rain = 0
KTH1 071549Z 18012KT 32/21 A3002 RMK A01 T03160213  RH  054%=      5-min Rain = 0
KTH1 071550Z 19009KT 32/21 A3002 RMK A01 T03170211  RH  054%=      5-min Rain = 0
KTH1 071551Z 19007G12KT 32/21 A3002 RMK A01 T03160214  RH  055%=      5-min Rain = 0
KTH1 071552Z 19014KT 32/21 A3002 RMK A01 T03160213  RH  054%=      5-min Rain = 0
KTH1 071553Z 18014G19KT 32/21 A3002 RMK A01 T03170212  RH  054%=      5-min Rain = 0
KTH1 071554Z 18010KT 32/21 A3002 RMK A01 T03160213  RH  054%=      5-min Rain = 0
KTH1 071555Z 19008KT 32/21 A3002 RMK A01 T03180214  RH  054%=      5-min Rain = 0
KTH1 071556Z 20008KT 32/21 A3002 RMK A01 T03200214  RH  053%=      5-min Rain = 0
KTH1 071557Z 18011KT 32/21 A3002 RMK A01 T03210213  RH  053%=      5-min Rain = 0
KTH1 071558Z 18008KT 32/21 A3002 RMK A01 T03200214  RH  053%=      5-min Rain = 0
KTH1 071559Z 18010KT 32/21 A3002 RMK A01 T03200214  RH  053%=      5-min Rain = 0
KTH1 071600Z 17007KT 32/22 A3002 RMK A01 T03220215  RH  053%=      5-min Rain = 0
KTH1 071601Z 17010KT 32/22 A3002 RMK A01 T03240215  RH  053%=      5-min Rain = 0
KTH1 071602Z 17006KT 33/22 A3002 RMK A01 T03250215  RH  052%=      5-min Rain = 0
KTH1 071603Z 19006KT 33/22 A3002 RMK A01 T03260216  RH  052%=      5-min Rain = 0
KTH1 071604Z 19006KT 33/22 A3002 RMK A01 T03280215  RH  052%=      5-min Rain = 0
KTH1 071605Z 18009KT 33/22 A3002 RMK A01 T03290216  RH  052%=      5-min Rain = 0
KTH1 071606Z 17011KT 33/21 A3002 RMK A01 T03300214  RH  051%=      5-min Rain = 0
KTH1 071607Z 17009KT 33/21 A3002 RMK A01 T03290213  RH  051%=      5-min Rain = 0
KTH1 071608Z 18007KT 33/21 A3002 RMK A01 T03270213  RH  051%=      5-min Rain = 0
KTH1 071609Z 17010G15KT 33/21 A3002 RMK A01 T03280212  RH  051%=      5-min Rain = 0
KTH1 071610Z 17010KT 33/21 A3002 RMK A01 T03290212  RH  050%=      5-min Rain = 0
KTH1 071611Z 18011KT 33/21 A3002 RMK A01 T03300212  RH  050%=      5-min Rain = 0
KTH1 071612Z 18011KT 33/21 A3002 RMK A01 T03310212  RH  050%=      5-min Rain = 0
KTH1 071613Z 17010G15KT 33/21 A3002 RMK A01 T03300212  RH  050%=      5-min Rain = 0
KTH1 071614Z 18013KT 33/21 A3002 RMK A01 T03290212  RH  050%=      5-min Rain = 0
KTH1 071615Z 18012KT 33/21 A3002 RMK A01 T03290212  RH  051%=      5-min Rain = 0
KTH1 071616Z 18008KT 33/21 A3002 RMK A01 T03280212  RH  051%=      5-min Rain = 0
KTH1 071617Z 17010G15KT 33/21 A3002 RMK A01 T03290212  RH  050%=      5-min Rain = 0
KTH1 071618Z 18008KT 33/21 A3002 RMK A01 T03300211  RH  050%=      5-min Rain = 0
KTH1 071619Z 17008G14KT 33/21 A3002 RMK A01 T03310213  RH  050%=      5-min Rain = 0
KTH1 071620Z 18010G15KT 33/21 A3002 RMK A01 T03330211  RH  049%=      5-min Rain = 0
KTH1 071621Z 17008G13KT 33/21 A3002 RMK A01 T03320211  RH  049%=      5-min Rain = 0
KTH1 071622Z 18007KT 33/21 A3002 RMK A01 T03320212  RH  049%=      5-min Rain = 0
KTH1 071623Z 17009G14KT 33/21 A3002 RMK A01 T03320212  RH  049%=      5-min Rain = 0
KTH1 071624Z 18013KT 33/21 A3002 RMK A01 T03330209  RH  048%=      5-min Rain = 0
KTH1 071625Z 17014KT 33/21 A3002 RMK A01 T03330207  RH  048%=      5-min Rain = 0
KTH1 071626Z 18010KT 33/21 A3002 RMK A01 T03320207  RH  048%=      5-min Rain = 0
KTH1 071627Z 18013G18KT 33/21 A3002 RMK A01 T03320207  RH  048%=      5-min Rain = 0
KTH1 071628Z 18011KT 33/21 A3002 RMK A01 T03320207  RH  048%=      5-min Rain = 0
KTH1 071629Z 20011KT 33/21 A3002 RMK A01 T03320207  RH  048%=      5-min Rain = 0
KTH1 071630Z 20014KT 33/21 A3002 RMK A01 T03310207  RH  048%=      5-min Rain = 0
KTH1 071631Z 19012KT 33/21 A3002 RMK A01 T03310207  RH  048%=      5-min Rain = 0
KTH1 071632Z 21010G15KT 33/21 A3002 RMK A01 T03310207  RH  048%=      5-min Rain = 0
KTH1 071633Z 22010KT 33/21 A3002 RMK A01 T03310208  RH  048%=      5-min Rain = 0
KTH1 071634Z 20007G12KT 33/21 A3002 RMK A01 T03300209  RH  049%=      5-min Rain = 0
KTH1 071635Z 16009G15KT 33/21 A3002 RMK A01 T03330212  RH  049%=      5-min Rain = 0
KTH1 071636Z 21009KT 34/21 A3002 RMK A01 T03380210  RH  047%=      5-min Rain = 0
KTH1 071637Z 20009KT 34/21 A3002 RMK A01 T03370210  RH  047%=      5-min Rain = 0
KTH1 071638Z 19007KT 34/21 A3002 RMK A01 T03350211  RH  048%=      5-min Rain = 0
KTH1 071639Z 16011KT 34/21 A3002 RMK A01 T03350210  RH  048%=      5-min Rain = 0
KTH1 071640Z 17008KT 34/21 A3002 RMK A01 T03370209  RH  047%=      5-min Rain = 0
KTH1 071641Z 17005G10KT 34/21 A3002 RMK A01 T03380211  RH  047%=      5-min Rain = 0
KTH1 071642Z 19010G16KT 34/21 A3002 RMK A01 T03420212  RH  047%=      5-min Rain = 0
KTH1 071643Z 18011KT 34/21 A3002 RMK A01 T03440208  RH  045%=      5-min Rain = 0
KTH1 071644Z 17008KT 34/21 A3002 RMK A01 T03410206  RH  045%=      5-min Rain = 0
KTH1 071645Z 18008KT 34/21 A3002 RMK A01 T03390207  RH  046%=      5-min Rain = 0
KTH1 071646Z 19008G14KT 34/21 A3002 RMK A01 T03390208  RH  046%=      5-min Rain = 0
KTH1 071647Z 19010KT 34/21 A3002 RMK A01 T03390208  RH  046%=      5-min Rain = 0
KTH1 071648Z 20009KT 34/21 A3002 RMK A01 T03400205  RH  046%=      5-min Rain = 0
KTH1 071649Z 18006KT 34/21 A3002 RMK A01 T03380205  RH  046%=      5-min Rain = 0
KTH1 071650Z 18008KT 34/21 A3001 RMK A01 T03380206  RH  046%=      5-min Rain = 0
KTH1 071651Z 19012KT 34/21 A3001 RMK A01 T03410207  RH  046%=      5-min Rain = 0
KTH1 071652Z 18012KT 34/21 A3001 RMK A01 T03420205  RH  045%=      5-min Rain = 0
KTH1 071653Z 17008G13KT 34/21 A3001 RMK A01 T03420206  RH  045%=      5-min Rain = 0
KTH1 071654Z 18009KT 34/21 A3001 RMK A01 T03430207  RH  045%=      5-min Rain = 0
KTH1 071655Z 18009KT 34/20 A3001 RMK A01 T03440203  RH  044%=      5-min Rain = 0
KTH1 071656Z 20010G16KT 34/21 A3001 RMK A01 T03410205  RH  045%=      5-min Rain = 0
KTH1 071657Z 20009KT 34/20 A3001 RMK A01 T03420204  RH  044%=      5-min Rain = 0
KTH1 071658Z 19009KT 34/20 A3001 RMK A01 T03440202  RH  043%=      5-min Rain = 0
KTH1 071659Z 18013KT 35/20 A3001 RMK A01 T03460196  RH  041%=      5-min Rain = 0
KTH1 071700Z 19013KT 35/19 A3001 RMK A01 T03460194  RH  041%=      5-min Rain = 0
KTH1 071701Z 19012G18KT 35/20 A3001 RMK A01 T03450196  RH  042%=      5-min Rain = 0
KTH1 071702Z 19012KT 34/20 A3001 RMK A01 T03430197  RH  042%=      5-min Rain = 0
KTH1 071703Z 21010KT 34/20 A3001 RMK A01 T03430198  RH  043%=      5-min Rain = 0
KTH1 071704Z 21012G17KT 34/20 A3001 RMK A01 T03420198  RH  043%=      5-min Rain = 0
KTH1 071705Z 22010G16KT 34/20 A3001 RMK A01 T03410200  RH  044%=      5-min Rain = 0
KTH1 071706Z 22007G12KT 34/20 A3001 RMK A01 T03410201  RH  044%=      5-min Rain = 0
KTH1 071707Z 22008G14KT 34/20 A3001 RMK A01 T03420203  RH  044%=      5-min Rain = 0
KTH1 071708Z 20014KT 34/20 A3001 RMK A01 T03430200  RH  043%=      5-min Rain = 0
KTH1 071709Z 20012G17KT 34/20 A3001 RMK A01 T03430201  RH  043%=      5-min Rain = 0
KTH1 071710Z 19009G14KT 34/20 A3001 RMK A01 T03440200  RH  043%=      5-min Rain = 0
KTH1 071711Z 20009G15KT 35/20 A3001 RMK A01 T03450200  RH  043%=      5-min Rain = 0
KTH1 071712Z 20011KT 35/20 A3001 RMK A01 T03460198  RH  042%=      5-min Rain = 0
KTH1 071713Z 20009KT 35/20 A3001 RMK A01 T03480198  RH  042%=      5-min Rain = 0
KTH1 071714Z 20009KT 35/20 A3001 RMK A01 T03480198  RH  041%=      5-min Rain = 0
KTH1 071715Z 20008G16KT 35/20 A3001 RMK A01 T03480201  RH  042%=      5-min Rain = 0
KTH1 071716Z 22010G16KT 35/20 A3001 RMK A01 T03490202  RH  042%=      5-min Rain = 0
KTH1 071717Z 21011G16KT 35/20 A3001 RMK A01 T03500202  RH  042%=      5-min Rain = 0
KTH1 071718Z 22009KT 35/20 A3001 RMK A01 T03470201  RH  042%=      5-min Rain = 0
KTH1 071719Z 19006KT 34/20 A3001 RMK A01 T03440201  RH  043%=      5-min Rain = 0
KTH1 071720Z 19009G16KT 35/20 A3001 RMK A01 T03460203  RH  043%=      5-min Rain = 0
KTH1 071721Z 19012G18KT 35/20 A3001 RMK A01 T03500199  RH  041%=      5-min Rain = 0
KTH1 071722Z 18011KT 35/20 A3001 RMK A01 T03510197  RH  040%=      5-min Rain = 0
KTH1 071723Z 19008G13KT 35/20 A3001 RMK A01 T03520195  RH  040%=      5-min Rain = 0
KTH1 071724Z 19009KT 35/20 A3001 RMK A01 T03530195  RH  040%=      5-min Rain = 0
KTH1 071725Z 21008KT 35/20 A3001 RMK A01 T03540195  RH  039%=      5-min Rain = 0
KTH1 071726Z 19006G11KT 35/20 A3001 RMK A01 T03540198  RH  040%=      5-min Rain = 0
KTH1 071727Z 19008KT 36/20 A3001 RMK A01 T03550197  RH  040%=      5-min Rain = 0
KTH1 071728Z 19011G16KT 36/19 A3001 RMK A01 T03560192  RH  038%=      5-min Rain = 0
KTH1 071729Z 17011KT 36/19 A3001 RMK A01 T03560190  RH  038%=      5-min Rain = 0
KTH1 071730Z 17007KT 35/19 A3001 RMK A01 T03520192  RH  039%=      5-min Rain = 0
KTH1 071731Z 18005KT 35/20 A3001 RMK A01 T03520196  RH  040%=      5-min Rain = 0
KTH1 071732Z 18009KT 36/20 A3001 RMK A01 T03550196  RH  039%=      5-min Rain = 0
KTH1 071733Z 18006G11KT 36/20 A3001 RMK A01 T03570197  RH  039%=      5-min Rain = 0
KTH1 071734Z 19013KT 36/20 A3001 RMK A01 T03590195  RH  038%=      5-min Rain = 0
KTH1 071735Z 18010G17KT 36/19 A3001 RMK A01 T03570191  RH  038%=      5-min Rain = 0
KTH1 071736Z 18010KT 36/19 A3001 RMK A01 T03550189  RH  038%=      5-min Rain = 0
KTH1 071737Z 18009G15KT 36/19 A3001 RMK A01 T03560190  RH  038%=      5-min Rain = 0
KTH1 071738Z 17011G16KT 36/19 A3001 RMK A01 T03570190  RH  038%=      5-min Rain = 0
KTH1 071739Z 19010G16KT 36/19 A3001 RMK A01 T03570194  RH  039%=      5-min Rain = 0
KTH1 071740Z 19010KT 36/19 A3001 RMK A01 T03580194  RH  038%=      5-min Rain = 0
KTH1 071741Z 18008KT 36/19 A3001 RMK A01 T03590193  RH  038%=      5-min Rain = 0
KTH1 071742Z 20005KT 36/19 A3001 RMK A01 T03580193  RH  038%=      5-min Rain = 0
KTH1 071743Z 17008KT 36/19 A3001 RMK A01 T03580193  RH  038%=      5-min Rain = 0
KTH1 071744Z 17010KT 36/19 A3001 RMK A01 T03600189  RH  037%=      5-min Rain = 0
KTH1 071745Z 18007KT 36/19 A3001 RMK A01 T03600192  RH  037%=      5-min Rain = 0
KTH1 071746Z 18010G15KT 36/20 A3001 RMK A01 T03630195  RH  037%=      5-min Rain = 0
KTH1 071747Z 18007KT 36/20 A3001 RMK A01 T03640195  RH  037%=      5-min Rain = 0
KTH1 071748Z 19010G19KT 36/20 A3001 RMK A01 T03630195  RH  037%=      5-min Rain = 0
KTH1 071749Z 17008KT 36/20 A3001 RMK A01 T03620196  RH  038%=      5-min Rain = 0
KTH1 071750Z 14008KT 36/20 A3001 RMK A01 T03610196  RH  038%=      5-min Rain = 0
KTH1 071751Z 16012KT 36/19 A30 RMK A01 T03610193  RH  038%=      5-min Rain = 0
KTH1 071752Z 17011G16KT 36/19 A30 RMK A01 T03610194  RH  038%=      5-min Rain = 0
KTH1 071753Z 18014KT 36/19 A3001 RMK A01 T03620194  RH  037%=      5-min Rain = 0
KTH1 071754Z 20010G15KT 36/19 A30 RMK A01 T03610193  RH  037%=      5-min Rain = 0
KTH1 071755Z 20010KT 36/19 A30 RMK A01 T03590192  RH  038%=      5-min Rain = 0
KTH1 071756Z 21007G12KT 36/19 A30 RMK A01 T03580192  RH  038%=      5-min Rain = 0
KTH1 071757Z 17006G11KT 36/20 A30 RMK A01 T03600195  RH  038%=      5-min Rain = 0
KTH1 071758Z 15010KT 36/19 A30 RMK A01 T03640194  RH  037%=      5-min Rain = 0
KTH1 071759Z 15009KT 36/19 A30 RMK A01 T03640193  RH  037%=      5-min Rain = 0
KTH1 071800Z 17008KT 36/20 A30 RMK A01 T03640195  RH  037%=      5-min Rain = 0
KTH1 071801Z 18008KT 37/20 A30 RMK A01 T03680195  RH  037%=      5-min Rain = 0
KTH1 071802Z 18013KT 37/19 A30 RMK A01 T03690194  RH  036%=      5-min Rain = 0
KTH1 071803Z 18010G16KT 37/19 A30 RMK A01 T03670193  RH  036%=      5-min Rain = 0
KTH1 071804Z 18011KT 37/19 A30 RMK A01 T03660192  RH  036%=      5-min Rain = 0
KTH1 071805Z 21013KT 36/19 A30 RMK A01 T03640193  RH  037%=      5-min Rain = 0
KTH1 071806Z 19011KT 36/19 A30 RMK A01 T03620191  RH  037%=      5-min Rain = 0
KTH1 071807Z 17011KT 36/19 A30 RMK A01 T03600191  RH  037%=      5-min Rain = 0
KTH1 071808Z 17009KT 36/19 A30 RMK A01 T03600189  RH  037%=      5-min Rain = 0
KTH1 071809Z 18005KT 36/19 A30 RMK A01 T03600191  RH  037%=      5-min Rain = 0
KTH1 071810Z 22008KT 36/19 A30 RMK A01 T03620192  RH  037%=      5-min Rain = 0
KTH1 071811Z 20003G8KT 36/20 A30 RMK A01 T03630195  RH  037%=      5-min Rain = 0
KTH1 071812Z 20003KT 36/19 A30 RMK A01 T03640194  RH  037%=      5-min Rain = 0
KTH1 071813Z 18006KT 37/19 A30 RMK A01 T03660193  RH  036%=      5-min Rain = 0
KTH1 071814Z 18007KT 37/19 A30 RMK A01 T03670190  RH  035%=      5-min Rain = 0
KTH1 071815Z 17014G19KT 37/19 A2999 RMK A01 T03680191  RH  036%=      5-min Rain = 0
KTH1 071816Z 20013KT 37/19 A30 RMK A01 T03660191  RH  036%=      5-min Rain = 0
KTH1 071817Z 20009G20KT 37/19 A30 RMK A01 T03650190  RH  036%=      5-min Rain = 0
KTH1 071818Z 21013G19KT 36/19 A30 RMK A01 T03630190  RH  036%=      5-min Rain = 0
KTH1 071819Z 20008KT 36/19 A30 RMK A01 T03630191  RH  036%=      5-min Rain = 0
KTH1 071820Z 18006KT 36/19 A30 RMK A01 T03620190  RH  037%=      5-min Rain = 0
KTH1 071821Z 18006G11KT 36/19 A30 RMK A01 T03610190  RH  037%=      5-min Rain = 0
KTH1 071822Z 20010G15KT 36/19 A30 RMK A01 T03630191  RH  037%=      5-min Rain = 0
KTH1 071823Z 19012KT 37/19 A30 RMK A01 T03650187  RH  035%=      5-min Rain = 0
KTH1 071824Z 18013KT 37/19 A30 RMK A01 T03650186  RH  035%=      5-min Rain = 0
KTH1 071825Z 19007G12KT 37/19 A30 RMK A01 T03660185  RH  035%=      5-min Rain = 0
KTH1 071826Z 18005KT 37/19 A30 RMK A01 T03670185  RH  034%=      5-min Rain = 0
KTH1 071827Z 18010G15KT 37/19 A2999 RMK A01 T03690185  RH  034%=      5-min Rain = 0
KTH1 071828Z 17013KT 37/19 A2999 RMK A01 T03690188  RH  035%=      5-min Rain = 0
KTH1 071829Z 15014G21KT 37/19 A2999 RMK A01 T03680188  RH  035%=      5-min Rain = 0
KTH1 071830Z 17010KT 37/19 A30 RMK A01 T03700188  RH  035%=      5-min Rain = 0
KTH1 071831Z 16008KT 37/19 A30 RMK A01 T03700187  RH  034%=      5-min Rain = 0
KTH1 071832Z 18008KT 37/19 A30 RMK A01 T03710188  RH  034%=      5-min Rain = 0
KTH1 071833Z 17010KT 37/19 A30 RMK A01 T03720188  RH  034%=      5-min Rain = 0
KTH1 071834Z 17010KT 37/18 A30 RMK A01 T03720184  RH  033%=      5-min Rain = 0
KTH1 071835Z 18009KT 37/19 A30 RMK A01 T03700185  RH  034%=      5-min Rain = 0
KTH1 071836Z 18009KT 37/19 A30 RMK A01 T03700186  RH  034%=      5-min Rain = 0
KTH1 071837Z 16008KT 37/19 A30 RMK A01 T03690186  RH  034%=      5-min Rain = 0
KTH1 071838Z 17010KT 37/19 A2999 RMK A01 T03680186  RH  034%=      5-min Rain = 0
KTH1 071839Z 14012G19KT 37/19 A2999 RMK A01 T03670186  RH  035%=      5-min Rain = 0
KTH1 071840Z 18014G19KT 37/19 A2999 RMK A01 T03690186  RH  034%=      5-min Rain = 0
KTH1 071841Z 19014KT 37/18 A30 RMK A01 T03710184  RH  034%=      5-min Rain = 0
KTH1 071842Z 19010KT 37/18 A30 RMK A01 T03700183  RH  034%=      5-min Rain = 0
KTH1 071843Z 18007KT 37/18 A2999 RMK A01 T03690184  RH  034%=      5-min Rain = 0
KTH1 071844Z 19009KT 37/19 A2999 RMK A01 T03700186  RH  034%=      5-min Rain = 0
KTH1 071845Z 17010G15KT 37/19 A2999 RMK A01 T03720189  RH  034%=      5-min Rain = 0
KTH1 071846Z 16010KT 37/19 A2999 RMK A01 T03740190  RH  034%=      5-min Rain = 0
KTH1 071847Z 15013KT 38/19 A2999 RMK A01 T03760188  RH  033%=      5-min Rain = 0
KTH1 071848Z 16005G11KT 37/19 A2999 RMK A01 T03730187  RH  034%=      5-min Rain = 0
KTH1 071849Z 17006KT 37/19 A2999 RMK A01 T03730187  RH  034%=      5-min Rain = 0
KTH1 071850Z 17005G11KT 37/19 A2999 RMK A01 T03730186  RH  034%=      5-min Rain = 0
KTH1 071851Z 19011G17KT 37/19 A2999 RMK A01 T03730188  RH  034%=      5-min Rain = 0
KTH1 071852Z 18013KT 38/19 A2999 RMK A01 T03750186  RH  033%=      5-min Rain = 0
KTH1 071853Z 18011KT 38/19 A2999 RMK A01 T03750186  RH  033%=      5-min Rain = 0
KTH1 071854Z 19013KT 38/18 A2999 RMK A01 T03750183  RH  033%=      5-min Rain = 0
KTH1 071855Z 19010KT 37/18 A2999 RMK A01 T03710182  RH  033%=      5-min Rain = 0
KTH1 071856Z 19008KT 37/19 A2999 RMK A01 T03700185  RH  034%=      5-min Rain = 0
KTH1 071857Z 18009KT 37/18 A2999 RMK A01 T03710184  RH  034%=      5-min Rain = 0
KTH1 071858Z 18013KT 37/19 A2999 RMK A01 T03720185  RH  034%=      5-min Rain = 0
KTH1 071859Z 19011KT 37/19 A2999 RMK A01 T03710186  RH  034%=      5-min Rain = 0
KTH1 071900Z 17006KT 37/19 A2999 RMK A01 T03710185  RH  034%=      5-min Rain = 0
KTH1 071901Z 15011G18KT 37/19 A2999 RMK A01 T03720185  RH  033%=      5-min Rain = 0
KTH1 071902Z 15015KT 38/19 A2999 RMK A01 T03750185  RH  033%=      5-min Rain = 0
KTH1 071903Z 16015KT 37/18 A2999 RMK A01 T03740183  RH  033%=      5-min Rain = 0
KTH1 071904Z 16011KT 37/18 A2999 RMK A01 T03710183  RH  033%=      5-min Rain = 0
KTH1 071905Z 17010KT 37/19 A2999 RMK A01 T03710185  RH  034%=      5-min Rain = 0
KTH1 071906Z 17008KT 37/18 A2999 RMK A01 T03720184  RH  033%=      5-min Rain = 0
KTH1 071907Z 17006KT 37/19 A2999 RMK A01 T03720185  RH  033%=      5-min Rain = 0
KTH1 071908Z 17006G11KT 37/19 A2999 RMK A01 T03740187  RH  034%=      5-min Rain = 0
KTH1 071909Z 16008KT 38/19 A2998 RMK A01 T03760185  RH  033%=      5-min Rain = 0
KTH1 071910Z 19011KT 38/19 A2999 RMK A01 T03780187  RH  033%=      5-min Rain = 0
KTH1 071911Z 18011KT 38/18 A2998 RMK A01 T03800181  RH  031%=      5-min Rain = 0
KTH1 071912Z 19013KT 38/18 A2998 RMK A01 T03780183  RH  032%=      5-min Rain = 0
KTH1 071913Z 19010KT 38/19 A2998 RMK A01 T03790185  RH  032%=      5-min Rain = 0
KTH1 071914Z 20009KT 38/19 A2998 RMK A01 T03790186  RH  032%=      5-min Rain = 0
KTH1 071915Z 20006KT 38/19 A2998 RMK A01 T03800187  RH  033%=      5-min Rain = 0
KTH1 071916Z 20009KT 38/19 A2998 RMK A01 T03820186  RH  032%=      5-min Rain = 0
KTH1 071917Z 17008G14KT 38/19 A2998 RMK A01 T03820187  RH  032%=      5-min Rain = 0
KTH1 071918Z 15010KT 38/18 A2998 RMK A01 T03820184  RH  032%=      5-min Rain = 0
KTH1 071919Z 16010G16KT 38/18 A2998 RMK A01 T03810184  RH  032%=      5-min Rain = 0
KTH1 071920Z 16011KT 38/18 A2998 RMK A01 T03800182  RH  032%=      5-min Rain = 0
KTH1 071921Z 16012G18KT 38/18 A2998 RMK A01 T03790181  RH  031%=      5-min Rain = 0
KTH1 071922Z 16010G17KT 38/18 A2998 RMK A01 T03770181  RH  032%=      5-min Rain = 0
KTH1 071923Z 15015KT 38/18 A2998 RMK A01 T03760181  RH  032%=      5-min Rain = 0
KTH1 071924Z 15012G20KT 38/18 A2998 RMK A01 T03750180  RH  032%=      5-min Rain = 0
KTH1 071925Z 15012KT 37/18 A2998 RMK A01 T03740181  RH  032%=      5-min Rain = 0
KTH1 071926Z 16012G17KT 38/18 A2998 RMK A01 T03760181  RH  032%=      5-min Rain = 0
KTH1 071927Z 18014KT 38/18 A2998 RMK A01 T03770179  RH  031%=      5-min Rain = 0
KTH1 071928Z 17013KT 38/18 A2998 RMK A01 T03750178  RH  032%=      5-min Rain = 0
KTH1 071929Z 18011KT 37/18 A2998 RMK A01 T03720179  RH  032%=      5-min Rain = 0
KTH1 071930Z 17008KT 37/18 A2998 RMK A01 T03720179  RH  032%=      5-min Rain = 0
KTH1 071931Z 16007KT 37/18 A2998 RMK A01 T03720179  RH  032%=      5-min Rain = 0
KTH1 071932Z 20007KT 38/18 A2997 RMK A01 T03750179  RH  032%=      5-min Rain = 0
KTH1 071933Z 18005KT 37/18 A2997 RMK A01 T03730176  RH  031%=      5-min Rain = 0
KTH1 071934Z 15009KT 37/18 A2997 RMK A01 T03730179  RH  032%=      5-min Rain = 0
KTH1 071935Z 16010KT 37/18 A2998 RMK A01 T03740178  RH  032%=      5-min Rain = 0
KTH1 071936Z 16010KT 37/18 A2997 RMK A01 T03740179  RH  032%=      5-min Rain = 0
KTH1 071937Z 17008G13KT 37/18 A2998 RMK A01 T03740182  RH  033%=      5-min Rain = 0
KTH1 071938Z 16013KT 38/18 A2998 RMK A01 T03790181  RH  032%=      5-min Rain = 0
KTH1 071939Z 16011G16KT 38/18 A2997 RMK A01 T03790180  RH  031%=      5-min Rain = 0
KTH1 071940Z 15015KT 38/18 A2997 RMK A01 T03790179  RH  031%=      5-min Rain = 0
KTH1 071941Z 17012G17KT 38/18 A2998 RMK A01 T03770180  RH  032%=      5-min Rain = 0
KTH1 071942Z 17011G17KT 38/18 A2997 RMK A01 T03770181  RH  032%=      5-min Rain = 0
KTH1 071943Z 16009KT 38/18 A2997 RMK A01 T03790182  RH  032%=      5-min Rain = 0
KTH1 071944Z 17009KT 38/18 A2997 RMK A01 T03820183  RH  031%=      5-min Rain = 0
KTH1 071945Z 17009KT 38/18 A2997 RMK A01 T03820181  RH  031%=      5-min Rain = 0
KTH1 071946Z 17007KT 38/18 A2997 RMK A01 T03820183  RH  031%=      5-min Rain = 0
KTH1 071947Z 17009KT 38/18 A2997 RMK A01 T03820184  RH  032%=      5-min Rain = 0
KTH1 071948Z 17006KT 38/18 A2997 RMK A01 T03820182  RH  031%=      5-min Rain = 0
KTH1 071949Z 16009G14KT 38/18 A2997 RMK A01 T03810180  RH  031%=      5-min Rain = 0
KTH1 071950Z 18011G16KT 38/18 A2997 RMK A01 T03810183  RH  032%=      5-min Rain = 0
KTH1 071951Z 20012G18KT 38/18 A2997 RMK A01 T03840182  RH  031%=      5-min Rain = 0
KTH1 071952Z 19013KT 38/18 A2997 RMK A01 T03840180  RH  030%=      5-min Rain = 0
KTH1 071953Z 19014KT 38/18 A2997 RMK A01 T03830178  RH  030%=      5-min Rain = 0
KTH1 071954Z 18010KT 38/18 A2997 RMK A01 T03820176  RH  030%=      5-min Rain = 0
KTH1 071955Z 18008G14KT 38/18 A2997 RMK A01 T03800177  RH  030%=      5-min Rain = 0
KTH1 071956Z 19008G16KT 38/18 A2997 RMK A01 T03800176  RH  030%=      5-min Rain = 0
KTH1 071957Z 20005G11KT 38/18 A2997 RMK A01 T03790177  RH  031%=      5-min Rain = 0
KTH1 071958Z 19008KT 38/18 A2997 RMK A01 T03790177  RH  031%=      5-min Rain = 0
KTH1 071959Z 20009KT 38/18 A2997 RMK A01 T03800178  RH  031%=      5-min Rain = 0
KTH1 072000Z 20011G16KT 38/18 A2997 RMK A01 T03820177  RH  030%=      5-min Rain = 0
KTH1 072001Z 18011KT 38/18 A2997 RMK A01 T03840178  RH  030%=      5-min Rain = 0
KTH1 072002Z 17009KT 39/18 A2997 RMK A01 T03850179  RH  030%=      5-min Rain = 0
KTH1 072003Z 17011G17KT 39/18 A2997 RMK A01 T03860178  RH  030%=      5-min Rain = 0
KTH1 072004Z 16013KT 39/18 A2997 RMK A01 T03860176  RH  029%=      5-min Rain = 0
KTH1 072005Z 17009KT 39/18 A2997 RMK A01 T03850177  RH  030%=      5-min Rain = 0
KTH1 072006Z 17008KT 38/18 A2997 RMK A01 T03840177  RH  030%=      5-min Rain = 0
KTH1 072007Z 18008KT 38/18 A2997 RMK A01 T03830177  RH  030%=      5-min Rain = 0
KTH1 072008Z 18012KT 38/18 A2997 RMK A01 T03830178  RH  030%=      5-min Rain = 0
KTH1 072009Z 19009KT 38/17 A2997 RMK A01 T03830174  RH  030%=      5-min Rain = 0
KTH1 072010Z 19007KT 38/18 A2997 RMK A01 T03820176  RH  030%=      5-min Rain = 0
KTH1 072011Z 18006KT 38/18 A2997 RMK A01 T03820176  RH  030%=      5-min Rain = 0
KTH1 072012Z 17006KT 38/18 A2997 RMK A01 T03840179  RH  030%=      5-min Rain = 0
KTH1 072013Z 19009KT 39/18 A2997 RMK A01 T03880179  RH  029%=      5-min Rain = 0
KTH1 072014Z 16009G14KT 39/18 A2997 RMK A01 T03900176  RH  029%=      5-min Rain = 0
KTH1 072015Z 17009KT 39/18 A2997 RMK A01 T03890176  RH  029%=      5-min Rain = 0
KTH1 072016Z 16008G15KT 39/18 A2997 RMK A01 T03880175  RH  029%=      5-min Rain = 0
KTH1 072017Z 16013KT 39/17 A2997 RMK A01 T03870174  RH  029%=      5-min Rain = 0
KTH1 072018Z 14013KT 39/17 A2997 RMK A01 T03870173  RH  029%=      5-min Rain = 0
KTH1 072019Z 16014KT 39/17 A2997 RMK A01 T03880173  RH  028%=      5-min Rain = 0
KTH1 072020Z 16010KT 39/17 A2997 RMK A01 T03870171  RH  028%=      5-min Rain = 0
KTH1 072021Z 18010G17KT 39/18 A2997 RMK A01 T03870175  RH  029%=      5-min Rain = 0
KTH1 072022Z 16013KT 39/17 A2997 RMK A01 T03880174  RH  029%=      5-min Rain = 0
KTH1 072023Z 16010KT 39/17 A2997 RMK A01 T03890172  RH  028%=      5-min Rain = 0
KTH1 072024Z 15011G16KT 39/17 A2996 RMK A01 T03860172  RH  029%=      5-min Rain = 0
KTH1 072025Z 15011KT 39/17 A2996 RMK A01 T03850172  RH  029%=      5-min Rain = 0
KTH1 072026Z 15013G20KT 39/17 A2996 RMK A01 T03860173  RH  029%=      5-min Rain = 0
KTH1 072027Z 17012KT 39/17 A2997 RMK A01 T03870172  RH  028%=      5-min Rain = 0
KTH1 072028Z 16009KT 39/18 A2997 RMK A01 T03870175  RH  029%=      5-min Rain = 0
KTH1 072029Z 17010G15KT 39/17 A2996 RMK A01 T03880174  RH  029%=      5-min Rain = 0
KTH1 072030Z 18009KT 39/17 A2996 RMK A01 T03890170  RH  028%=      5-min Rain = 0
KTH1 072031Z 19009KT 39/17 A2996 RMK A01 T03870172  RH  028%=      5-min Rain = 0
KTH1 072032Z 18011KT 39/17 A2996 RMK A01 T03880168  RH  028%=      5-min Rain = 0
KTH1 072033Z 19011KT 39/17 A2996 RMK A01 T03880166  RH  027%=      5-min Rain = 0
KTH1 072034Z 19011G16KT 39/17 A2997 RMK A01 T03870167  RH  028%=      5-min Rain = 0
KTH1 072035Z 20010KT 39/17 A2996 RMK A01 T03860168  RH  028%=      5-min Rain = 0
KTH1 072036Z 20008KT 39/17 A2996 RMK A01 T03850170  RH  028%=      5-min Rain = 0
KTH1 072037Z 18008G15KT 39/17 A2996 RMK A01 T03850169  RH  028%=      5-min Rain = 0
KTH1 072038Z 15014G19KT 39/17 A2996 RMK A01 T03860168  RH  028%=      5-min Rain = 0
KTH1 072039Z 17011G16KT 39/17 A2996 RMK A01 T03870169  RH  028%=      5-min Rain = 0
KTH1 072040Z 14011KT 39/17 A2996 RMK A01 T03860167  RH  028%=      5-min Rain = 0
KTH1 072041Z 14008G13KT 39/17 A2996 RMK A01 T03850169  RH  028%=      5-min Rain = 0
KTH1 072042Z 14012KT 39/17 A2996 RMK A01 T03850169  RH  028%=      5-min Rain = 0
KTH1 072043Z 13010KT 39/17 A2996 RMK A01 T03860169  RH  028%=      5-min Rain = 0
KTH1 072044Z 14011KT 39/17 A2996 RMK A01 T03870169  RH  028%=      5-min Rain = 0
KTH1 072045Z 15012KT 39/17 A2996 RMK A01 T03880169  RH  028%=      5-min Rain = 0
KTH1 072046Z 16010G16KT 39/17 A2996 RMK A01 T03890170  RH  028%=      5-min Rain = 0
KTH1 072047Z 17012KT 39/17 A2996 RMK A01 T03890169  RH  028%=      5-min Rain = 0
KTH1 072048Z 19009KT 39/17 A2996 RMK A01 T03890167  RH  027%=      5-min Rain = 0
KTH1 072049Z 17009G15KT 39/17 A2996 RMK A01 T03860166  RH  028%=      5-min Rain = 0
KTH1 072050Z 16008G16KT 39/17 A2996 RMK A01 T03850168  RH  028%=      5-min Rain = 0
KTH1 072051Z 15013KT 39/17 A2996 RMK A01 T03860168  RH  028%=      5-min Rain = 0
KTH1 072052Z 15012G17KT 39/17 A2996 RMK A01 T03870167  RH  028%=      5-min Rain = 0
KTH1 072053Z 17012KT 39/17 A2996 RMK A01 T03890167  RH  027%=      5-min Rain = 0
KTH1 072054Z 15009KT 39/17 A2996 RMK A01 T03880166  RH  027%=      5-min Rain = 0
KTH1 072055Z 16006KT 39/17 A2996 RMK A01 T03870170  RH  028%=      5-min Rain = 0
KTH1 072056Z 14008KT 39/17 A2996 RMK A01 T03900168  RH  027%=      5-min Rain = 0
KTH1 072057Z 15009KT 39/17 A2996 RMK A01 T03910167  RH  027%=      5-min Rain = 0
KTH1 072058Z 14011G16KT 39/17 A2996 RMK A01 T03910167  RH  027%=      5-min Rain = 0
KTH1 072059Z 14011KT 39/17 A2996 RMK A01 T03900166  RH  027%=      5-min Rain = 0
KTH1 072100Z 14006KT 39/17 A2996 RMK A01 T03890166  RH  027%=      5-min Rain = 0
KTH1 072101Z 14008G14KT 39/17 A2996 RMK A01 T03890167  RH  027%=      5-min Rain = 0
KTH1 072102Z 15007G14KT 39/17 A2996 RMK A01 T03910165  RH  027%=      5-min Rain = 0
KTH1 072103Z 17007KT 39/17 A2996 RMK A01 T03920167  RH  027%=      5-min Rain = 0
KTH1 072104Z 17009G14KT 39/17 A2996 RMK A01 T03930166  RH  027%=      5-min Rain = 0
KTH1 072105Z 15012KT 39/16 A2996 RMK A01 T03940164  RH  026%=      5-min Rain = 0
KTH1 072106Z 16011KT 39/16 A2996 RMK A01 T03940162  RH  026%=      5-min Rain = 0
KTH1 072107Z 15011G16KT 39/16 A2995 RMK A01 T03930160  RH  026%=      5-min Rain = 0
KTH1 072108Z 15012KT 39/16 A2995 RMK A01 T03920160  RH  026%=      5-min Rain = 0
KTH1 072109Z 16009KT 39/16 A2995 RMK A01 T03900162  RH  026%=      5-min Rain = 0
KTH1 072110Z 14011KT 39/16 A2995 RMK A01 T03880163  RH  027%=      5-min Rain = 0
KTH1 072111Z 16011KT 39/16 A2995 RMK A01 T03890162  RH  026%=      5-min Rain = 0
KTH1 072112Z 15009G14KT 39/16 A2995 RMK A01 T03910161  RH  026%=      5-min Rain = 0
KTH1 072113Z 16011G19KT 39/16 A2995 RMK A01 T03910162  RH  026%=      5-min Rain = 0
KTH1 072114Z 15016KT 39/16 A2995 RMK A01 T03920160  RH  026%=      5-min Rain = 0
KTH1 072115Z 15012G17KT 39/16 A2995 RMK A01 T03900161  RH  026%=      5-min Rain = 0
KTH1 072116Z 16010G16KT 39/16 A2995 RMK A01 T03900164  RH  027%=      5-min Rain = 0
KTH1 072117Z 15011KT 39/16 A2995 RMK A01 T03910163  RH  026%=      5-min Rain = 0
KTH1 072118Z 15011KT 39/16 A2995 RMK A01 T03910163  RH  026%=      5-min Rain = 0
KTH1 072119Z 15011KT 39/16 A2995 RMK A01 T03910164  RH  027%=      5-min Rain = 0
KTH1 072120Z 14012G17KT 39/16 A2995 RMK A01 T03910161  RH  026%=      5-min Rain = 0
KTH1 072121Z 15013KT 39/16 A2995 RMK A01 T03910160  RH  026%=      5-min Rain = 0
KTH1 072122Z 16013KT 39/16 A2995 RMK A01 T03890159  RH  026%=      5-min Rain = 0
KTH1 072123Z 15011KT 39/16 A2995 RMK A01 T03870160  RH  026%=      5-min Rain = 0
KTH1 072124Z 16009G14KT 39/16 A2995 RMK A01 T03860162  RH  027%=      5-min Rain = 0
KTH1 072125Z 17009KT 39/16 A2995 RMK A01 T03880164  RH  027%=      5-min Rain = 0
KTH1 072126Z 18010KT 39/16 A2995 RMK A01 T03900163  RH  026%=      5-min Rain = 0
KTH1 072127Z 20009KT 39/16 A2995 RMK A01 T03910161  RH  026%=      5-min Rain = 0
KTH1 072128Z 19009G14KT 39/16 A2995 RMK A01 T03900160  RH  026%=      5-min Rain = 0
KTH1 072129Z 22010KT 39/16 A2994 RMK A01 T03890160  RH  026%=      5-min Rain = 0
KTH1 072130Z 20007KT 39/16 A2995 RMK A01 T03880157  RH  026%=      5-min Rain = 0
KTH1 072131Z 19008KT 39/16 A2995 RMK A01 T03880159  RH  026%=      5-min Rain = 0
KTH1 072132Z 19007G12KT 39/16 A2995 RMK A01 T03890160  RH  026%=      5-min Rain = 0
KTH1 072133Z 20011KT 39/16 A2995 RMK A01 T03910160  RH  026%=      5-min Rain = 0
KTH1 072134Z 18011G16KT 39/16 A2994 RMK A01 T03920157  RH  025%=      5-min Rain = 0
KTH1 072135Z 19009KT 39/16 A2995 RMK A01 T03920156  RH  025%=      5-min Rain = 0
KTH1 072136Z 19009KT 39/16 A2995 RMK A01 T03920157  RH  025%=      5-min Rain = 0
KTH1 072137Z 18008KT 39/16 A2995 RMK A01 T03910156  RH  025%=      5-min Rain = 0
KTH1 072138Z 19010KT 39/16 A2994 RMK A01 T03910155  RH  025%=      5-min Rain = 0
KTH1 072139Z 18007KT 39/16 A2994 RMK A01 T03930158  RH  025%=      5-min Rain = 0
KTH1 072140Z 19005KT 39/16 A2994 RMK A01 T03930160  RH  026%=      5-min Rain = 0
KTH1 072141Z 19010KT 39/16 A2994 RMK A01 T03940160  RH  025%=      5-min Rain = 0
KTH1 072142Z 18009KT 40/16 A2994 RMK A01 T03950161  RH  025%=      5-min Rain = 0
KTH1 072143Z 18005KT 39/16 A2994 RMK A01 T03940163  RH  026%=      5-min Rain = 0
KTH1 072144Z 17008KT 39/16 A2994 RMK A01 T03940163  RH  026%=      5-min Rain = 0
KTH1 072145Z 19011KT 39/16 A2994 RMK A01 T03940161  RH  026%=      5-min Rain = 0
KTH1 072146Z 19009G14KT 39/15 A2994 RMK A01 T03940152  RH  024%=      5-min Rain = 0
KTH1 072147Z 21009G15KT 39/15 A2994 RMK A01 T03930151  RH  024%=      5-min Rain = 0
KTH1 072148Z 19010G18KT 39/15 A2994 RMK A01 T03930153  RH  025%=      5-min Rain = 0
KTH1 072149Z 18013KT 39/16 A2994 RMK A01 T03930157  RH  025%=      5-min Rain = 0
KTH1 072150Z 18011G17KT 39/16 A2994 RMK A01 T03930161  RH  026%=      5-min Rain = 0
KTH1 072151Z 19012KT 39/16 A2994 RMK A01 T03920162  RH  026%=      5-min Rain = 0
KTH1 072152Z 19013KT 39/16 A2994 RMK A01 T03910161  RH  026%=      5-min Rain = 0
KTH1 072153Z 18013KT 39/16 A2994 RMK A01 T03890160  RH  026%=      5-min Rain = 0
KTH1 072154Z 17010KT 39/16 A2994 RMK A01 T03870161  RH  026%=      5-min Rain = 0
KTH1 072155Z 19009KT 39/17 A2994 RMK A01 T03870165  RH  027%=      5-min Rain = 0
KTH1 072156Z 20009KT 39/17 A2994 RMK A01 T03890165  RH  027%=      5-min Rain = 0
KTH1 072157Z 19008KT 39/16 A2994 RMK A01 T03910164  RH  027%=      5-min Rain = 0
KTH1 072158Z 20008KT 39/16 A2994 RMK A01 T03910161  RH  026%=      5-min Rain = 0
KTH1 072159Z 20004KT 39/16 A2994 RMK A01 T03890163  RH  027%=      5-min Rain = 0
KTH1 072200Z 15009KT 39/16 A2994 RMK A01 T03890164  RH  027%=      5-min Rain = 0
KTH1 072201Z 17012KT 39/16 A2994 RMK A01 T03900162  RH  026%=      5-min Rain = 0
KTH1 072202Z 17011G16KT 39/16 A2994 RMK A01 T03900162  RH  026%=      5-min Rain = 0
KTH1 072203Z 17013KT 39/16 A2994 RMK A01 T03910160  RH  026%=      5-min Rain = 0
KTH1 072204Z 17012G17KT 39/16 A2994 RMK A01 T03900161  RH  026%=      5-min Rain = 0
KTH1 072205Z 18011KT 39/16 A2994 RMK A01 T03890162  RH  026%=      5-min Rain = 0
KTH1 072206Z 19010KT 39/16 A2994 RMK A01 T03890163  RH  027%=      5-min Rain = 0
KTH1 072207Z 19008KT 39/16 A2994 RMK A01 T03880162  RH  027%=      5-min Rain = 0
KTH1 072208Z 15010KT 39/17 A2994 RMK A01 T03870166  RH  027%=      5-min Rain = 0
KTH1 072209Z 16007KT 39/16 A2994 RMK A01 T03880162  RH  027%=      5-min Rain = 0
KTH1 072210Z 15008KT 39/16 A2994 RMK A01 T03880164  RH  027%=      5-min Rain = 0
KTH1 072211Z 15007KT 39/17 A2994 RMK A01 T03880165  RH  027%=      5-min Rain = 0
KTH1 072212Z 16011KT 39/17 A2994 RMK A01 T03880166  RH  027%=      5-min Rain = 0
KTH1 072213Z 16010G15KT 39/16 A2994 RMK A01 T03880164  RH  027%=      5-min Rain = 0
KTH1 072214Z 16008KT 39/16 A2994 RMK A01 T03880164  RH  027%=      5-min Rain = 0
KTH1 072215Z 17011KT 39/16 A2994 RMK A01 T03880164  RH  027%=      5-min Rain = 0
KTH1 072216Z 16009KT 39/16 A2994 RMK A01 T03890164  RH  027%=      5-min Rain = 0
KTH1 072217Z 18008KT 39/16 A2993 RMK A01 T03890164  RH  027%=      5-min Rain = 0
KTH1 072218Z 17008G13KT 39/16 A2993 RMK A01 T03880163  RH  027%=      5-min Rain = 0
KTH1 072219Z 17010KT 39/16 A2993 RMK A01 T03890163  RH  027%=      5-min Rain = 0
KTH1 072220Z 15011G19KT 39/16 A2993 RMK A01 T03880163  RH  027%=      5-min Rain = 0
KTH1 072221Z 17009G16KT 39/16 A2993 RMK A01 T03880162  RH  027%=      5-min Rain = 0
KTH1 072222Z 17006G12KT 39/16 A2993 RMK A01 T03880164  RH  027%=      5-min Rain = 0
KTH1 072223Z 18008KT 39/16 A2993 RMK A01 T03900161  RH  026%=      5-min Rain = 0
KTH1 072224Z 18007KT 39/16 A2993 RMK A01 T03910159  RH  026%=      5-min Rain = 0
KTH1 072225Z 17007G12KT 39/16 A2993 RMK A01 T03910160  RH  026%=      5-min Rain = 0
KTH1 072226Z 19009G14KT 39/16 A2993 RMK A01 T03920158  RH  025%=      5-min Rain = 0
KTH1 072227Z 17012KT 39/16 A2993 RMK A01 T03920157  RH  025%=      5-min Rain = 0
KTH1 072228Z 15009G15KT 39/16 A2993 RMK A01 T03920160  RH  026%=      5-min Rain = 0
KTH1 072229Z 16009G15KT 39/16 A2993 RMK A01 T03930159  RH  025%=      5-min Rain = 0
KTH1 072230Z 17008G13KT 40/16 A2993 RMK A01 T03950157  RH  025%=      5-min Rain = 0
KTH1 072231Z 16011G16KT 40/16 A2993 RMK A01 T03950156  RH  025%=      5-min Rain = 0
KTH1 072232Z 17009G14KT 40/16 A2993 RMK A01 T03950156  RH  025%=      5-min Rain = 0
KTH1 072233Z 16009KT 39/16 A2993 RMK A01 T03930158  RH  025%=      5-min Rain = 0
KTH1 072234Z 16010KT 39/16 A2993 RMK A01 T03920158  RH  025%=      5-min Rain = 0
KTH1 072235Z 17010KT 39/16 A2993 RMK A01 T03920158  RH  025%=      5-min Rain = 0
KTH1 072236Z 18009KT 39/16 A2993 RMK A01 T03910159  RH  026%=      5-min Rain = 0
KTH1 072237Z 19009KT 39/16 A2993 RMK A01 T03900158  RH  026%=      5-min Rain = 0
KTH1 072238Z 18008KT 39/16 A2993 RMK A01 T03890157  RH  026%=      5-min Rain = 0
KTH1 072239Z 18007KT 39/16 A2993 RMK A01 T03880159  RH  026%=      5-min Rain = 0
KTH1 072240Z 17008KT 39/16 A2993 RMK A01 T03890160  RH  026%=      5-min Rain = 0
KTH1 072241Z 15012G18KT 39/16 A2993 RMK A01 T03900158  RH  026%=      5-min Rain = 0
KTH1 072242Z 16012G17KT 39/16 A2993 RMK A01 T03900155  RH  025%=      5-min Rain = 0
KTH1 072243Z 15014KT 39/16 A2993 RMK A01 T03900155  RH  025%=      5-min Rain = 0
KTH1 072244Z 15014KT 39/16 A2993 RMK A01 T03870155  RH  025%=      5-min Rain = 0
KTH1 072245Z 14014KT 39/15 A2993 RMK A01 T03860154  RH  026%=      5-min Rain = 0
KTH1 072246Z 16010KT 39/16 A2993 RMK A01 T03850156  RH  026%=      5-min Rain = 0
KTH1 072247Z 17009G14KT 39/16 A2993 RMK A01 T03850156  RH  026%=      5-min Rain = 0
KTH1 072248Z 16010KT 39/16 A2993 RMK A01 T03860156  RH  026%=      5-min Rain = 0
KTH1 072249Z 17011KT 39/16 A2993 RMK A01 T03870155  RH  026%=      5-min Rain = 0
KTH1 072250Z 17010KT 39/15 A2993 RMK A01 T03870154  RH  025%=      5-min Rain = 0
KTH1 072251Z 17013KT 39/15 A2993 RMK A01 T03870154  RH  025%=      5-min Rain = 0
KTH1 072252Z 15012G17KT 39/16 A2993 RMK A01 T03870156  RH  026%=      5-min Rain = 0
KTH1 072253Z 16011KT 39/16 A2993 RMK A01 T03870156  RH  026%=      5-min Rain = 0
KTH1 072254Z 15011KT 39/16 A2993 RMK A01 T03870156  RH  026%=      5-min Rain = 0
KTH1 072255Z 15009G14KT 39/16 A2993 RMK A01 T03860157  RH  026%=      5-min Rain = 0
KTH1 072256Z 16008KT 39/16 A2993 RMK A01 T03860157  RH  026%=      5-min Rain = 0
KTH1 072257Z 16008KT 39/16 A2993 RMK A01 T03860157  RH  026%=      5-min Rain = 0
KTH1 072258Z 17009KT 39/16 A2993 RMK A01 T03860159  RH  026%=      5-min Rain = 0
KTH1 072259Z 15006KT 39/16 A2993 RMK A01 T03860159  RH  026%=      5-min Rain = 0
KTH1 072300Z 15011KT 39/16 A2992 RMK A01 T03860160  RH  027%=      5-min Rain = 0
KTH1 072301Z 16014G19KT 39/16 A2992 RMK A01 T03860160  RH  026%=      5-min Rain = 0
KTH1 072302Z 17009G15KT 39/16 A2993 RMK A01 T03870160  RH  026%=      5-min Rain = 0
KTH1 072303Z 15008KT 39/16 A2993 RMK A01 T03860162  RH  027%=      5-min Rain = 0
KTH1 072304Z 15010KT 39/16 A2993 RMK A01 T03870162  RH  027%=      5-min Rain = 0
KTH1 072305Z 15008G13KT 39/16 A2993 RMK A01 T03880162  RH  026%=      5-min Rain = 0
KTH1 072306Z 15008KT 39/16 A2992 RMK A01 T03880162  RH  027%=      5-min Rain = 0
KTH1 072307Z 16011KT 39/16 A2993 RMK A01 T03890164  RH  027%=      5-min Rain = 0
KTH1 072308Z 15007KT 39/16 A2993 RMK A01 T03890164  RH  027%=      5-min Rain = 0
KTH1 072309Z 15008G14KT 39/17 A2992 RMK A01 T03890167  RH  027%=      5-min Rain = 0
KTH1 072310Z 15012KT 39/17 A2992 RMK A01 T03890168  RH  027%=      5-min Rain = 0
KTH1 072311Z 14013KT 39/17 A2992 RMK A01 T03870167  RH  028%=      5-min Rain = 0
KTH1 072312Z 14012KT 39/17 A2992 RMK A01 T03850166  RH  028%=      5-min Rain = 0
KTH1 072313Z 14010G16KT 38/17 A2992 RMK A01 T03830167  RH  028%=      5-min Rain = 0
KTH1 072314Z 14009KT 38/17 A2992 RMK A01 T03830166  RH  028%=      5-min Rain = 0
KTH1 072315Z 14008KT 38/17 A2992 RMK A01 T03830167  RH  028%=      5-min Rain = 0
KTH1 072316Z 18007KT 38/17 A2992 RMK A01 T03830167  RH  028%=      5-min Rain = 0
KTH1 072317Z 18009G15KT 38/17 A2992 RMK A01 T03830167  RH  028%=      5-min Rain = 0
KTH1 072318Z 15012G18KT 38/17 A2992 RMK A01 T03830166  RH  028%=      5-min Rain = 0
KTH1 072319Z 15010KT 38/17 A2992 RMK A01 T03840166  RH  028%=      5-min Rain = 0
KTH1 072320Z 14008KT 38/17 A2992 RMK A01 T03840168  RH  028%=      5-min Rain = 0
KTH1 072321Z 14008KT 39/17 A2992 RMK A01 T03850167  RH  028%=      5-min Rain = 0
KTH1 072322Z 15012G17KT 39/17 A2992 RMK A01 T03850166  RH  028%=      5-min Rain = 0
KTH1 072323Z 13014KT 39/16 A2992 RMK A01 T03850164  RH  027%=      5-min Rain = 0
KTH1 072324Z 14014KT 38/16 A2992 RMK A01 T03840164  RH  027%=      5-min Rain = 0
KTH1 072325Z 14009G14KT 38/17 A2992 RMK A01 T03830165  RH  028%=      5-min Rain = 0
KTH1 072326Z 15014KT 38/17 A2992 RMK A01 T03830165  RH  028%=      5-min Rain = 0
KTH1 072327Z 13009G14KT 38/17 A2992 RMK A01 T03820165  RH  028%=      5-min Rain = 0
KTH1 072328Z 14013G19KT 38/17 A2992 RMK A01 T03820166  RH  028%=      5-min Rain = 0
KTH1 072329Z 15016G21KT 38/16 A2992 RMK A01 T03820164  RH  028%=      5-min Rain = 0
KTH1 072330Z 15015KT 38/16 A2992 RMK A01 T03810164  RH  028%=      5-min Rain = 0
KTH1 072331Z 15013KT 38/16 A2992 RMK A01 T03800164  RH  028%=      5-min Rain = 0
KTH1 072332Z 15012KT 38/17 A2992 RMK A01 T03800165  RH  028%=      5-min Rain = 0
KTH1 072333Z 15010G15KT 38/17 A2992 RMK A01 T03800166  RH  028%=      5-min Rain = 0
KTH1 072334Z 15012KT 38/17 A2992 RMK A01 T03800166  RH  028%=      5-min Rain = 0
KTH1 072335Z 14012KT 38/16 A2992 RMK A01 T03800164  RH  028%=      5-min Rain = 0
KTH1 072336Z 15012KT 38/17 A2992 RMK A01 T03790165  RH  028%=      5-min Rain = 0
KTH1 072337Z 14012KT 38/17 A2992 RMK A01 T03790165  RH  028%=      5-min Rain = 0
KTH1 072338Z 14012G17KT 38/16 A2992 RMK A01 T03790163  RH  028%=      5-min Rain = 0
KTH1 072339Z 14009KT 38/17 A2992 RMK A01 T03800165  RH  028%=      5-min Rain = 0
KTH1 072340Z 13011KT 38/16 A2992 RMK A01 T03800164  RH  028%=      5-min Rain = 0
KTH1 072341Z 13011G18KT 38/16 A2992 RMK A01 T03810164  RH  028%=      5-min Rain = 0
KTH1 072342Z 13015KT 38/16 A2992 RMK A01 T03800162  RH  028%=      5-min Rain = 0
KTH1 072343Z 14013KT 38/16 A2992 RMK A01 T03790162  RH  028%=      5-min Rain = 0
KTH1 072344Z 13012KT 38/16 A2992 RMK A01 T03790162  RH  028%=      5-min Rain = 0
KTH1 072345Z 14014G20KT 38/16 A2992 RMK A01 T03780161  RH  028%=      5-min Rain = 0
KTH1 072346Z 14013KT 38/16 A2992 RMK A01 T03780161  RH  028%=      5-min Rain = 0
KTH1 072347Z 14014KT 38/16 A2992 RMK A01 T03770161  RH  028%=      5-min Rain = 0
KTH1 072348Z 14012KT 38/16 A2992 RMK A01 T03780161  RH  028%=      5-min Rain = 0
KTH1 072349Z 14012G17KT 38/16 A2992 RMK A01 T03770161  RH  028%=      5-min Rain = 0
KTH1 072350Z 14012KT 38/16 A2992 RMK A01 T03770160  RH  028%=      5-min Rain = 0
KTH1 072351Z 15011KT 38/16 A2992 RMK A01 T03770161  RH  028%=      5-min Rain = 0
KTH1 072352Z 13012G18KT 38/16 A2992 RMK A01 T03770160  RH  028%=      5-min Rain = 0
KTH1 072353Z 13010G17KT 38/16 A2992 RMK A01 T03770159  RH  028%=      5-min Rain = 0
KTH1 072354Z 13010KT 38/16 A2992 RMK A01 T03770159  RH  028%=      5-min Rain = 0
KTH1 072355Z 13012G22KT 38/16 A2992 RMK A01 T03770159  RH  028%=      5-min Rain = 0
KTH1 072356Z 14015G21KT 38/16 A2992 RMK A01 T03770158  RH  028%=      5-min Rain = 0
KTH1 072357Z 14012KT 38/16 A2992 RMK A01 T03760157  RH  028%=      5-min Rain = 0
KTH1 072358Z 14009KT 38/16 A2992 RMK A01 T03760159  RH  028%=      5-min Rain = 0
KTH1 072359Z 14011KT 38/16 A2992 RMK A01 T03760159  RH  028%=      5-min Rain = 0
KTH1 080000Z 15010KT 38/16 A2993 RMK A01 T03760159  RH  028%=      5-min Rain = 0
KTH1 080001Z 15015G21KT 38/16 A2992 RMK A01 T03760159  RH  028%=      5-min Rain = 0
KTH1 080002Z 15015G21KT 38/16 A2992 RMK A01 T03760155  RH  027%=      5-min Rain = 0
KTH1 080003Z 15012KT 38/16 A2993 RMK A01 T03750155  RH  027%=      5-min Rain = 0
KTH1 080004Z 15013KT 37/16 A2993 RMK A01 T03740156  RH  027%=      5-min Rain = 0
KTH1 080005Z 15011KT 37/16 A2993 RMK A01 T03740155  RH  027%=      5-min Rain = 0
KTH1 080006Z 14010KT 37/16 A2993 RMK A01 T03740156  RH  028%=      5-min Rain = 0
KTH1 080007Z 14009KT 38/16 A2993 RMK A01 T03750155  RH  027%=      5-min Rain = 0
KTH1 080008Z 14010G16KT 38/16 A2993 RMK A01 T03750156  RH  028%=      5-min Rain = 0
KTH1 080009Z 13014KT 38/16 A2993 RMK A01 T03750155  RH  027%=      5-min Rain = 0
KTH1 080010Z 14013KT 38/15 A2993 RMK A01 T03750154  RH  027%=      5-min Rain = 0
KTH1 080011Z 14011KT 37/15 A2993 RMK A01 T03740152  RH  027%=      5-min Rain = 0
KTH1 080012Z 14010KT 37/15 A2993 RMK A01 T03740151  RH  027%=      5-min Rain = 0
KTH1 080013Z 14011G17KT 37/15 A2993 RMK A01 T03730150  RH  027%=      5-min Rain = 0
KTH1 080014Z 14012KT 37/15 A2993 RMK A01 T03730150  RH  027%=      5-min Rain = 0
KTH1 080015Z 14011KT 37/15 A2993 RMK A01 T03720150  RH  027%=      5-min Rain = 0
KTH1 080016Z 14011KT 37/15 A2993 RMK A01 T03720151  RH  027%=      5-min Rain = 0
KTH1 080017Z 14011KT 37/15 A2993 RMK A01 T03720150  RH  027%=      5-min Rain = 0
KTH1 080018Z 15010KT 37/15 A2993 RMK A01 T03720152  RH  027%=      5-min Rain = 0
KTH1 080019Z 15013G20KT 37/15 A2993 RMK A01 T03710152  RH  027%=      5-min Rain = 0
KTH1 080020Z 14010G15KT 37/15 A2993 RMK A01 T03700152  RH  027%=      5-min Rain = 0
KTH1 080021Z 15010KT 37/15 A2993 RMK A01 T03690152  RH  028%=      5-min Rain = 0
KTH1 080022Z 15009KT 37/15 A2993 RMK A01 T03680152  RH  028%=      5-min Rain = 0
KTH1 080023Z 16008KT 37/15 A2993 RMK A01 T03670152  RH  028%=      5-min Rain = 0
KTH1 080024Z 15010G15KT 37/15 A2993 RMK A01 T03670153  RH  028%=      5-min Rain = 0
KTH1 080025Z 14014KT 37/15 A2993 RMK A01 T03670152  RH  028%=      5-min Rain = 0
KTH1 080026Z 15011KT 37/15 A2993 RMK A01 T03680152  RH  028%=      5-min Rain = 0
KTH1 080027Z 15011KT 37/15 A2993 RMK A01 T03680154  RH  028%=      5-min Rain = 0
KTH1 080028Z 15010KT 37/15 A2993 RMK A01 T03680154  RH  028%=      5-min Rain = 0
KTH1 080029Z 15011G16KT 37/15 A2993 RMK A01 T03680154  RH  028%=      5-min Rain = 0
KTH1 080030Z 15011G16KT 37/15 A2993 RMK A01 T03680152  RH  028%=      5-min Rain = 0
KTH1 080031Z 15011KT 37/15 A2993 RMK A01 T03680152  RH  028%=      5-min Rain = 0
KTH1 080032Z 15012G17KT 37/15 A2993 RMK A01 T03680152  RH  028%=      5-min Rain = 0
KTH1 080033Z 15012G17KT 37/15 A2993 RMK A01 T03680152  RH  028%=      5-min Rain = 0
KTH1 080034Z 16013KT 37/15 A2993 RMK A01 T03680151  RH  028%=      5-min Rain = 0
KTH1 080035Z 15014KT 37/15 A2993 RMK A01 T03680149  RH  027%=      5-min Rain = 0
KTH1 080036Z 15011G16KT 37/15 A2993 RMK A01 T03680150  RH  027%=      5-min Rain = 0
KTH1 080037Z 14015KT 37/15 A2993 RMK A01 T03670149  RH  027%=      5-min Rain = 0
KTH1 080038Z 14010KT 37/15 A2993 RMK A01 T03670149  RH  027%=      5-min Rain = 0
KTH1 080039Z 15013KT 37/15 A2993 RMK A01 T03670150  RH  028%=      5-min Rain = 0
KTH1 080040Z 15009G14KT 37/15 A2993 RMK A01 T03670150  RH  028%=      5-min Rain = 0
KTH1 080041Z 15011G16KT 37/15 A2993 RMK A01 T03660150  RH  028%=      5-min Rain = 0
KTH1 080042Z 15013KT 37/15 A2993 RMK A01 T03660151  RH  028%=      5-min Rain = 0
KTH1 080043Z 14013KT 37/15 A2993 RMK A01 T03660151  RH  028%=      5-min Rain = 0
KTH1 080044Z 15011KT 37/15 A2993 RMK A01 T03650152  RH  028%=      5-min Rain = 0
KTH1 080045Z 14011KT 37/15 A2993 RMK A01 T03650153  RH  028%=      5-min Rain = 0
KTH1 080046Z 15010KT 36/15 A2993 RMK A01 T03640153  RH  029%=      5-min Rain = 0
KTH1 080047Z 16012KT 36/15 A2993 RMK A01 T03640153  RH  029%=      5-min Rain = 0
KTH1 080048Z 16012KT 36/15 A2993 RMK A01 T03640152  RH  029%=      5-min Rain = 0
KTH1 080049Z 16010G15KT 36/15 A2994 RMK A01 T03640153  RH  029%=      5-min Rain = 0
KTH1 080050Z 16008KT 36/15 A2994 RMK A01 T03630153  RH  029%=      5-min Rain = 0
KTH1 080051Z 15010KT 36/15 A2994 RMK A01 T03630154  RH  029%=      5-min Rain = 0
KTH1 080052Z 16009KT 36/16 A2994 RMK A01 T03620155  RH  029%=      5-min Rain = 0
KTH1 080053Z 15009KT 36/15 A2994 RMK A01 T03610153  RH  029%=      5-min Rain = 0
KTH1 080054Z 15010KT 36/15 A2994 RMK A01 T03610152  RH  029%=      5-min Rain = 0
KTH1 080055Z 16009G14KT 36/15 A2994 RMK A01 T03610152  RH  029%=      5-min Rain = 0
KTH1 080056Z 15011KT 36/15 A2994 RMK A01 T03600152  RH  029%=      5-min Rain = 0
KTH1 080057Z 15011KT 36/15 A2994 RMK A01 T03600152  RH  029%=      5-min Rain = 0
KTH1 080058Z 15010KT 36/15 A2994 RMK A01 T03600151  RH  029%=      5-min Rain = 0
KTH1 080059Z 15010KT 36/15 A2994 RMK A01 T03590151  RH  029%=      5-min Rain = 0
KTH1 080100Z 15008KT 36/15 A2994 RMK A01 T03590151  RH  029%=      5-min Rain = 0
KTH1 080101Z 16008KT 36/15 A2994 RMK A01 T03580152  RH  029%=      5-min Rain = 0
KTH1 080102Z 15008KT 36/15 A2994 RMK A01 T03570151  RH  029%=      5-min Rain = 0
KTH1 080103Z 16008KT 36/15 A2994 RMK A01 T03570151  RH  029%=      5-min Rain = 0
KTH1 080104Z 16008G15KT 36/15 A2994 RMK A01 T03560151  RH  030%=      5-min Rain = 0
KTH1 080105Z 16009KT 36/15 A2994 RMK A01 T03550152  RH  030%=      5-min Rain = 0
KTH1 080106Z 15008KT 36/15 A2994 RMK A01 T03550152  RH  030%=      5-min Rain = 0
KTH1 080107Z 15008G13KT 35/15 A2994 RMK A01 T03540152  RH  030%=      5-min Rain = 0
KTH1 080108Z 15010KT 35/15 A2994 RMK A01 T03540152  RH  030%=      5-min Rain = 0
KTH1 080109Z 15007KT 35/15 A2994 RMK A01 T03540152  RH  030%=      5-min Rain = 0
KTH1 080110Z 16008G13KT 35/15 A2994 RMK A01 T03530153  RH  030%=      5-min Rain = 0
KTH1 080111Z 15009KT 35/15 A2994 RMK A01 T03520154  RH  031%=      5-min Rain = 0
KTH1 080112Z 16010KT 35/16 A2994 RMK A01 T03520155  RH  031%=      5-min Rain = 0
KTH1 080113Z 15010KT 35/16 A2994 RMK A01 T03510156  RH  031%=      5-min Rain = 0
KTH1 080114Z 15009KT 35/16 A2994 RMK A01 T03510157  RH  031%=      5-min Rain = 0
KTH1 080115Z 15007KT 35/16 A2994 RMK A01 T03510158  RH  032%=      5-min Rain = 0
KTH1 080116Z 15008KT 35/16 A2994 RMK A01 T03500159  RH  032%=      5-min Rain = 0
KTH1 080117Z 15009KT 35/16 A2994 RMK A01 T03490159  RH  032%=      5-min Rain = 0
KTH1 080118Z 15009KT 35/16 A2994 RMK A01 T03490160  RH  033%=      5-min Rain = 0
KTH1 080119Z 15009KT 35/16 A2994 RMK A01 T03480161  RH  033%=      5-min Rain = 0
KTH1 080120Z 15008KT 35/16 A2994 RMK A01 T03470162  RH  033%=      5-min Rain = 0
KTH1 080121Z 15009KT 35/16 A2994 RMK A01 T03470162  RH  033%=      5-min Rain = 0
KTH1 080122Z 15009KT 35/16 A2994 RMK A01 T03470164  RH  034%=      5-min Rain = 0
KTH1 080123Z 15009KT 35/16 A2994 RMK A01 T03470164  RH  034%=      5-min Rain = 0
KTH1 080124Z 15009KT 35/17 A2994 RMK A01 T03460165  RH  034%=      5-min Rain = 0
KTH1 080125Z 15007KT 35/17 A2994 RMK A01 T03460165  RH  034%=      5-min Rain = 0
KTH1 080126Z 15010KT 35/17 A2994 RMK A01 T03450165  RH  034%=      5-min Rain = 0
KTH1 080127Z 14007KT 34/17 A2994 RMK A01 T03440166  RH  034%=      5-min Rain = 0
KTH1 080128Z 14009KT 34/17 A2994 RMK A01 T03440166  RH  035%=      5-min Rain = 0
KTH1 080129Z 14008KT 34/17 A2994 RMK A01 T03440167  RH  035%=      5-min Rain = 0
KTH1 080130Z 15008KT 34/17 A2994 RMK A01 T03430166  RH  035%=      5-min Rain = 0
KTH1 080131Z 14008KT 34/17 A2994 RMK A01 T03430167  RH  035%=      5-min Rain = 0
KTH1 080132Z 14007KT 34/17 A2994 RMK A01 T03420167  RH  035%=      5-min Rain = 0
KTH1 080133Z 14008KT 34/17 A2994 RMK A01 T03420167  RH  035%=      5-min Rain = 0
KTH1 080134Z 14007KT 34/17 A2994 RMK A01 T03410167  RH  036%=      5-min Rain = 0
KTH1 080135Z 14008KT 34/17 A2994 RMK A01 T03410168  RH  036%=      5-min Rain = 0
KTH1 080136Z 15007KT 34/17 A2994 RMK A01 T03410168  RH  036%=      5-min Rain = 0
KTH1 080137Z 14007KT 34/17 A2994 RMK A01 T03400168  RH  036%=      5-min Rain = 0
KTH1 080138Z 14008KT 34/17 A2994 RMK A01 T03390168  RH  036%=      5-min Rain = 0
KTH1 080139Z 14007KT 34/17 A2994 RMK A01 T03390168  RH  036%=      5-min Rain = 0
KTH1 080140Z 15007KT 34/17 A2994 RMK A01 T03380168  RH  036%=      5-min Rain = 0
KTH1 080141Z 15006KT 34/17 A2995 RMK A01 T03380168  RH  036%=      5-min Rain = 0
KTH1 080142Z 15006KT 34/17 A2995 RMK A01 T03370169  RH  037%=      5-min Rain = 0
KTH1 080143Z 15006KT 34/17 A2995 RMK A01 T03370169  RH  037%=      5-min Rain = 0
KTH1 080144Z 15007KT 34/17 A2995 RMK A01 T03360169  RH  037%=      5-min Rain = 0
KTH1 080145Z 14008KT 34/17 A2995 RMK A01 T03350169  RH  037%=      5-min Rain = 0
KTH1 080146Z 15007KT 34/17 A2995 RMK A01 T03350168  RH  037%=      5-min Rain = 0
KTH1 080147Z 14008KT 34/17 A2995 RMK A01 T03350168  RH  037%=      5-min Rain = 0
KTH1 080148Z 14007KT 33/17 A2995 RMK A01 T03340168  RH  037%=      5-min Rain = 0
KTH1 080149Z 14008KT 34/17 A2995 RMK A01 T03350169  RH  037%=      5-min Rain = 0
KTH1 080150Z 15008KT 33/17 A2995 RMK A01 T03340169  RH  037%=      5-min Rain = 0
KTH1 080151Z 15008KT 33/17 A2995 RMK A01 T03340169  RH  037%=      5-min Rain = 0
KTH1 080152Z 14008KT 33/17 A2995 RMK A01 T03340169  RH  037%=      5-min Rain = 0
KTH1 080153Z 15009KT 33/17 A2995 RMK A01 T03340169  RH  037%=      5-min Rain = 0
KTH1 080154Z 15009KT 33/17 A2995 RMK A01 T03330168  RH  037%=      5-min Rain = 0
KTH1 080155Z 15006KT 33/17 A2995 RMK A01 T03340168  RH  037%=      5-min Rain = 0
KTH1 080156Z 16008KT 34/17 A2995 RMK A01 T03350168  RH  037%=      5-min Rain = 0
KTH1 080157Z 14008KT 33/17 A2995 RMK A01 T03340168  RH  037%=      5-min Rain = 0
KTH1 080158Z 14009KT 33/17 A2995 RMK A01 T03340168  RH  037%=      5-min Rain = 0
KTH1 080159Z 14009KT 33/17 A2995 RMK A01 T03340168  RH  037%=      5-min Rain = 0
KTH1 080200Z 15010G15KT 33/17 A2995 RMK A01 T03340168  RH  037%=      5-min Rain = 0
KTH1 080201Z 14009KT 33/17 A2995 RMK A01 T03340168  RH  037%=      5-min Rain = 0
KTH1 080202Z 14009KT 33/17 A2995 RMK A01 T03330168  RH  037%=      5-min Rain = 0
KTH1 080203Z 15008KT 33/17 A2995 RMK A01 T03340168  RH  037%=      5-min Rain = 0
KTH1 080204Z 15008KT 33/17 A2995 RMK A01 T03330168  RH  037%=      5-min Rain = 0
KTH1 080205Z 15007KT 33/17 A2995 RMK A01 T03330168  RH  037%=      5-min Rain = 0
KTH1 080206Z 15008KT 33/17 A2995 RMK A01 T03330168  RH  037%=      5-min Rain = 0
KTH1 080207Z 15009KT 33/17 A2995 RMK A01 T03330168  RH  037%=      5-min Rain = 0
KTH1 080208Z 14008KT 33/17 A2995 RMK A01 T03320168  RH  037%=      5-min Rain = 0
KTH1 080209Z 14008KT 33/17 A2995 RMK A01 T03320168  RH  037%=      5-min Rain = 0
KTH1 080210Z 14008KT 33/17 A2996 RMK A01 T03320168  RH  038%=      5-min Rain = 0
KTH1 080211Z 14009KT 33/17 A2996 RMK A01 T03310168  RH  038%=      5-min Rain = 0
KTH1 080212Z 14007KT 33/17 A2996 RMK A01 T03310167  RH  038%=      5-min Rain = 0
KTH1 080213Z 15008KT 33/17 A2996 RMK A01 T03310168  RH  038%=      5-min Rain = 0
KTH1 080214Z 15008KT 33/17 A2996 RMK A01 T03300168  RH  038%=      5-min Rain = 0
KTH1 080215Z 14008KT 33/17 A2996 RMK A01 T03300168  RH  038%=      5-min Rain = 0
KTH1 080216Z 15008KT 33/17 A2996 RMK A01 T03300168  RH  038%=      5-min Rain = 0
KTH1 080217Z 15007KT 33/17 A2996 RMK A01 T03290168  RH  038%=      5-min Rain = 0
KTH1 080218Z 15009KT 33/17 A2996 RMK A01 T03290168  RH  038%=      5-min Rain = 0
KTH1 080219Z 15009KT 33/17 A2996 RMK A01 T03290168  RH  038%=      5-min Rain = 0
KTH1 080220Z 16008KT 33/17 A2996 RMK A01 T03290168  RH  038%=      5-min Rain = 0
KTH1 080221Z 15007KT 33/17 A2996 RMK A01 T03280168  RH  038%=      5-min Rain = 0
KTH1 080222Z 15007KT 33/17 A2996 RMK A01 T03280168  RH  038%=      5-min Rain = 0
KTH1 080223Z 15007KT 33/17 A2996 RMK A01 T03270168  RH  039%=      5-min Rain = 0
KTH1 080224Z 15007KT 33/17 A2996 RMK A01 T03270168  RH  039%=      5-min Rain = 0
KTH1 080225Z 15006KT 33/17 A2996 RMK A01 T03260168  RH  039%=      5-min Rain = 0
KTH1 080226Z 15008KT 33/17 A2996 RMK A01 T03260168  RH  039%=      5-min Rain = 0
KTH1 080227Z 16008KT 33/17 A2996 RMK A01 T03260169  RH  039%=      5-min Rain = 0
KTH1 080228Z 15008KT 33/17 A2996 RMK A01 T03260168  RH  039%=      5-min Rain = 0
KTH1 080229Z 15006KT 33/17 A2996 RMK A01 T03260169  RH  039%=      5-min Rain = 0
KTH1 080230Z 15006G13KT 33/17 A2996 RMK A01 T03260169  RH  039%=      5-min Rain = 0
KTH1 080231Z 15008KT 33/17 A2996 RMK A01 T03260170  RH  039%=      5-min Rain = 0
KTH1 080232Z 15006KT 33/17 A2996 RMK A01 T03250170  RH  039%=      5-min Rain = 0
KTH1 080233Z 15007G12KT 33/17 A2996 RMK A01 T03250170  RH  040%=      5-min Rain = 0
KTH1 080234Z 15009KT 33/17 A2996 RMK A01 T03250170  RH  040%=      5-min Rain = 0
KTH1 080235Z 16007KT 33/17 A2996 RMK A01 T03250171  RH  040%=      5-min Rain = 0
KTH1 080236Z 15008KT 32/17 A2996 RMK A01 T03240171  RH  040%=      5-min Rain = 0
KTH1 080237Z 15008KT 32/17 A2996 RMK A01 T03240171  RH  040%=      5-min Rain = 0
KTH1 080238Z 15008KT 32/17 A2996 RMK A01 T03230171  RH  040%=      5-min Rain = 0
KTH1 080239Z 16009KT 32/17 A2996 RMK A01 T03240171  RH  040%=      5-min Rain = 0
KTH1 080240Z 15007KT 32/17 A2996 RMK A01 T03230171  RH  040%=      5-min Rain = 0
KTH1 080241Z 15008KT 32/17 A2997 RMK A01 T03230171  RH  040%=      5-min Rain = 0
KTH1 080242Z 15008KT 32/17 A2997 RMK A01 T03230171  RH  040%=      5-min Rain = 0
KTH1 080243Z 16008KT 32/17 A2997 RMK A01 T03230172  RH  040%=      5-min Rain = 0
KTH1 080244Z 16008KT 32/17 A2997 RMK A01 T03230172  RH  041%=      5-min Rain = 0
KTH1 080245Z 15008KT 32/17 A2997 RMK A01 T03220172  RH  041%=      5-min Rain = 0
KTH1 080246Z 15008KT 32/17 A2997 RMK A01 T03220172  RH  041%=      5-min Rain = 0
KTH1 080247Z 15008KT 32/17 A2997 RMK A01 T03220172  RH  041%=      5-min Rain = 0
KTH1 080248Z 16008KT 32/17 A2997 RMK A01 T03220172  RH  041%=      5-min Rain = 0
KTH1 080249Z 15008KT 32/17 A2997 RMK A01 T03220173  RH  041%=      5-min Rain = 0
KTH1 080250Z 15008KT 32/17 A2997 RMK A01 T03220173  RH  041%=      5-min Rain = 0
KTH1 080251Z 15007G12KT 32/17 A2997 RMK A01 T03220173  RH  041%=      5-min Rain = 0
KTH1 080252Z 15007KT 32/17 A2997 RMK A01 T03210173  RH  041%=      5-min Rain = 0
KTH1 080253Z 15008KT 32/17 A2997 RMK A01 T03210173  RH  041%=      5-min Rain = 0
KTH1 080254Z 15009KT 32/17 A2997 RMK A01 T03210173  RH  041%=      5-min Rain = 0
KTH1 080255Z 16008KT 32/17 A2997 RMK A01 T03210173  RH  041%=      5-min Rain = 0
KTH1 080256Z 15009KT 32/17 A2997 RMK A01 T03210173  RH  041%=      5-min Rain = 0
KTH1 080257Z 15009KT 32/17 A2997 RMK A01 T03210173  RH  041%=      5-min Rain = 0
KTH1 080258Z 15009KT 32/17 A2997 RMK A01 T03210173  RH  041%=      5-min Rain = 0
KTH1 080259Z 15011G16KT 32/17 A2997 RMK A01 T03210173  RH  041%=      5-min Rain = 0
KTH1 080300Z 15012KT 32/17 A2997 RMK A01 T03220173  RH  041%=      5-min Rain = 0
KTH1 080301Z 16010KT 32/17 A2997 RMK A01 T03220173  RH  041%=      5-min Rain = 0
KTH1 080302Z 15010KT 32/17 A2997 RMK A01 T03230173  RH  041%=      5-min Rain = 0
KTH1 080303Z 15009KT 32/17 A2997 RMK A01 T03230172  RH  041%=      5-min Rain = 0
KTH1 080304Z 15010KT 32/17 A2997 RMK A01 T03230173  RH  041%=      5-min Rain = 0
KTH1 080305Z 15008KT 32/17 A2997 RMK A01 T03230173  RH  041%=      5-min Rain = 0
KTH1 080306Z 15008G13KT 32/17 A2997 RMK A01 T03230173  RH  041%=      5-min Rain = 0
KTH1 080307Z 15009KT 32/17 A2997 RMK A01 T03220173  RH  041%=      5-min Rain = 0
KTH1 080308Z 15009KT 32/17 A2997 RMK A01 T03220173  RH  041%=      5-min Rain = 0
KTH1 080309Z 15012KT 32/17 A2997 RMK A01 T03220172  RH  041%=      5-min Rain = 0
KTH1 080310Z 15010KT 32/17 A2997 RMK A01 T03220172  RH  041%=      5-min Rain = 0
KTH1 080311Z 15010KT 32/17 A2997 RMK A01 T03220172  RH  041%=      5-min Rain = 0
KTH1 080312Z 15007KT 32/17 A2997 RMK A01 T03220172  RH  041%=      5-min Rain = 0
KTH1 080313Z 15007KT 32/17 A2997 RMK A01 T03210172  RH  041%=      5-min Rain = 0
KTH1 080314Z 15008G14KT 32/17 A2998 RMK A01 T03210172  RH  041%=      5-min Rain = 0
KTH1 080315Z 15008KT 32/17 A2998 RMK A01 T03210172  RH  041%=      5-min Rain = 0
KTH1 080316Z 15008KT 32/17 A2998 RMK A01 T03210173  RH  041%=      5-min Rain = 0
KTH1 080317Z 15008KT 32/17 A2998 RMK A01 T03200172  RH  041%=      5-min Rain = 0
KTH1 080318Z 15009KT 32/17 A2998 RMK A01 T03200172  RH  041%=      5-min Rain = 0
KTH1 080319Z 15006KT 32/17 A2998 RMK A01 T03200172  RH  041%=      5-min Rain = 0
KTH1 080320Z 15007KT 32/17 A2998 RMK A01 T03190172  RH  042%=      5-min Rain = 0
KTH1 080321Z 15009KT 32/17 A2998 RMK A01 T03190173  RH  042%=      5-min Rain = 0
KTH1 080322Z 14007KT 32/17 A2998 RMK A01 T03180172  RH  042%=      5-min Rain = 0
KTH1 080323Z 15009KT 32/17 A2998 RMK A01 T03180172  RH  042%=      5-min Rain = 0
KTH1 080324Z 15007KT 32/17 A2998 RMK A01 T03180172  RH  042%=      5-min Rain = 0
KTH1 080325Z 15008KT 32/17 A2998 RMK A01 T03180172  RH  042%=      5-min Rain = 0
KTH1 080326Z 15009KT 32/17 A2998 RMK A01 T03180172  RH  042%=      5-min Rain = 0
KTH1 080327Z 15008KT 32/17 A2998 RMK A01 T03180172  RH  042%=      5-min Rain = 0
KTH1 080328Z 15008KT 32/17 A2998 RMK A01 T03170172  RH  042%=      5-min Rain = 0
KTH1 080329Z 15007KT 32/17 A2998 RMK A01 T03180172  RH  042%=      5-min Rain = 0
KTH1 080330Z 15008G13KT 32/17 A2998 RMK A01 T03170172  RH  042%=      5-min Rain = 0
KTH1 080331Z 15008KT 32/17 A2998 RMK A01 T03170172  RH  042%=      5-min Rain = 0
KTH1 080332Z 15007KT 32/17 A2998 RMK A01 T03170172  RH  042%=      5-min Rain = 0
KTH1 080333Z 15007KT 32/17 A2998 RMK A01 T03170172  RH  042%=      5-min Rain = 0
KTH1 080334Z 15008KT 32/17 A2998 RMK A01 T03160172  RH  042%=      5-min Rain = 0
KTH1 080335Z 15009KT 32/17 A2998 RMK A01 T03160172  RH  042%=      5-min Rain = 0
KTH1 080336Z 15009G15KT 32/17 A2998 RMK A01 T03160172  RH  042%=      5-min Rain = 0
KTH1 080337Z 15011KT 32/17 A2998 RMK A01 T03160172  RH  042%=      5-min Rain = 0
KTH1 080338Z 15008KT 32/17 A2998 RMK A01 T03160171  RH  042%=      5-min Rain = 0
KTH1 080339Z 15008KT 32/17 A2998 RMK A01 T03160171  RH  042%=      5-min Rain = 0
KTH1 080340Z 15008KT 32/17 A2998 RMK A01 T03160171  RH  042%=      5-min Rain = 0
KTH1 080341Z 15008KT 32/17 A2999 RMK A01 T03160172  RH  042%=      5-min Rain = 0
KTH1 080342Z 15008KT 32/17 A2999 RMK A01 T03150172  RH  042%=      5-min Rain = 0
KTH1 080343Z 15008KT 32/17 A2999 RMK A01 T03150172  RH  042%=      5-min Rain = 0
KTH1 080344Z 15008KT 32/17 A2999 RMK A01 T03150172  RH  042%=      5-min Rain = 0
KTH1 080345Z 15008KT 31/17 A2999 RMK A01 T03140171  RH  042%=      5-min Rain = 0
KTH1 080346Z 16007KT 31/17 A2999 RMK A01 T03140171  RH  043%=      5-min Rain = 0
KTH1 080347Z 15008KT 31/17 A2999 RMK A01 T03130171  RH  043%=      5-min Rain = 0
KTH1 080348Z 16009KT 31/17 A2999 RMK A01 T03140172  RH  043%=      5-min Rain = 0
KTH1 080349Z 15009KT 31/17 A2999 RMK A01 T03140172  RH  043%=      5-min Rain = 0
KTH1 080350Z 15007KT 31/17 A2999 RMK A01 T03140172  RH  043%=      5-min Rain = 0
KTH1 080351Z 15009KT 31/17 A2999 RMK A01 T03140172  RH  043%=      5-min Rain = 0
KTH1 080352Z 15008KT 31/17 A2999 RMK A01 T03130171  RH  043%=      5-min Rain = 0
KTH1 080353Z 15009KT 31/17 A2999 RMK A01 T03130171  RH  043%=      5-min Rain = 0
KTH1 080354Z 15008KT 31/17 A2999 RMK A01 T03130172  RH  043%=      5-min Rain = 0
KTH1 080355Z 15010KT 31/17 A2999 RMK A01 T03130172  RH  043%=      5-min Rain = 0
KTH1 080356Z 15010KT 31/17 A2999 RMK A01 T03130172  RH  043%=      5-min Rain = 0
KTH1 080357Z 15010KT 31/17 A2999 RMK A01 T03130172  RH  043%=      5-min Rain = 0
KTH1 080358Z 15007KT 31/17 A2999 RMK A01 T03130172  RH  043%=      5-min Rain = 0
KTH1 080359Z 15008KT 31/17 A2999 RMK A01 T03120171  RH  043%=      5-min Rain = 0
KTH1 080400Z 15008KT 31/17 A2999 RMK A01 T03130172  RH  043%=      5-min Rain = 0
KTH1 080401Z 15009KT 31/17 A2999 RMK A01 T03120172  RH  043%=      5-min Rain = 0
KTH1 080402Z 15008KT 31/17 A2999 RMK A01 T03120172  RH  043%=      5-min Rain = 0
KTH1 080403Z 16006KT 31/17 A2999 RMK A01 T03120172  RH  043%=      5-min Rain = 0
KTH1 080404Z 16007KT 31/17 A2999 RMK A01 T03110172  RH  043%=      5-min Rain = 0
KTH1 080405Z 16010G16KT 31/17 A2999 RMK A01 T03110172  RH  044%=      5-min Rain = 0
KTH1 080406Z 15009KT 31/17 A2999 RMK A01 T03100172  RH  044%=      5-min Rain = 0
KTH1 080407Z 15010KT 31/17 A2999 RMK A01 T03110172  RH  044%=      5-min Rain = 0
KTH1 080408Z 15008KT 31/17 A2999 RMK A01 T03110172  RH  044%=      5-min Rain = 0
KTH1 080409Z 16009KT 31/17 A2999 RMK A01 T03110172  RH  044%=      5-min Rain = 0
KTH1 080410Z 15007G12KT 31/17 A2999 RMK A01 T03110173  RH  044%=      5-min Rain = 0
KTH1 080411Z 15009KT 31/17 A2999 RMK A01 T03100173  RH  044%=      5-min Rain = 0
KTH1 080412Z 15010KT 31/17 A2999 RMK A01 T03100173  RH  044%=      5-min Rain = 0
KTH1 080413Z 15008KT 31/17 A2999 RMK A01 T03100173  RH  044%=      5-min Rain = 0
KTH1 080414Z 15010KT 31/17 A2999 RMK A01 T03100173  RH  044%=      5-min Rain = 0
KTH1 080415Z 15010KT 31/17 A2999 RMK A01 T03100173  RH  044%=      5-min Rain = 0
KTH1 080416Z 16009KT 31/17 A2999 RMK A01 T03100174  RH  044%=      5-min Rain = 0
KTH1 080417Z 16008KT 31/17 A2999 RMK A01 T03100174  RH  044%=      5-min Rain = 0
KTH1 080418Z 15007KT 31/17 A2999 RMK A01 T03090173  RH  044%=      5-min Rain = 0
KTH1 080419Z 16007KT 31/17 A2999 RMK A01 T03090173  RH  044%=      5-min Rain = 0
KTH1 080420Z 15010KT 31/17 A2999 RMK A01 T03090174  RH  044%=      5-min Rain = 0
KTH1 080421Z 15010KT 31/17 A2999 RMK A01 T03090174  RH  044%=      5-min Rain = 0
KTH1 080422Z 15009KT 31/17 A2999 RMK A01 T03090174  RH  044%=      5-min Rain = 0
KTH1 080423Z 15009KT 31/17 A2999 RMK A01 T03090174  RH  044%=      5-min Rain = 0
KTH1 080424Z 15006KT 31/17 A2999 RMK A01 T03090174  RH  044%=      5-min Rain = 0
KTH1 080425Z 15008KT 31/17 A2999 RMK A01 T03090174  RH  045%=      5-min Rain = 0
KTH1 080426Z 15009KT 31/17 A2999 RMK A01 T03080174  RH  045%=      5-min Rain = 0
KTH1 080427Z 15010KT 31/17 A2999 RMK A01 T03080174  RH  045%=      5-min Rain = 0
KTH1 080428Z 15008KT 31/17 A2999 RMK A01 T03080174  RH  045%=      5-min Rain = 0
KTH1 080429Z 15007KT 31/17 A2999 RMK A01 T03080174  RH  045%=      5-min Rain = 0
KTH1 080430Z 15006KT 31/18 A30 RMK A01 T03070175  RH  045%=      5-min Rain = 0
KTH1 080431Z 15008KT 31/18 A30 RMK A01 T03070175  RH  045%=      5-min Rain = 0
KTH1 080432Z 15011KT 31/17 A30 RMK A01 T03060174  RH  045%=      5-min Rain = 0
KTH1 080433Z 16008KT 31/18 A30 RMK A01 T03060175  RH  045%=      5-min Rain = 0
KTH1 080434Z 16009KT 31/18 A30 RMK A01 T03070175  RH  045%=      5-min Rain = 0
KTH1 080435Z 15010KT 31/18 A30 RMK A01 T03070175  RH  045%=      5-min Rain = 0
KTH1 080436Z 15009KT 31/18 A30 RMK A01 T03070175  RH  045%=      5-min Rain = 0
KTH1 080437Z 15008KT 31/18 A30 RMK A01 T03070175  RH  045%=      5-min Rain = 0
KTH1 080438Z 16009KT 31/18 A30 RMK A01 T03070175  RH  045%=      5-min Rain = 0
KTH1 080439Z 16008KT 31/18 A30 RMK A01 T03070175  RH  045%=      5-min Rain = 0
KTH1 080440Z 15009KT 31/18 A30 RMK A01 T03070175  RH  045%=      5-min Rain = 0
KTH1 080441Z 16009KT 31/18 A30 RMK A01 T03070176  RH  045%=      5-min Rain = 0
KTH1 080442Z 16008KT 31/18 A30 RMK A01 T03060176  RH  046%=      5-min Rain = 0
KTH1 080443Z 15007G12KT 31/18 A30 RMK A01 T03060176  RH  046%=      5-min Rain = 0
KTH1 080444Z 16009KT 31/18 A30 RMK A01 T03060176  RH  046%=      5-min Rain = 0
KTH1 080445Z 16009KT 31/18 A30 RMK A01 T03050176  RH  046%=      5-min Rain = 0
KTH1 080446Z 16008KT 31/18 A30 RMK A01 T03050176  RH  046%=      5-min Rain = 0
KTH1 080447Z 16008KT 31/18 A30 RMK A01 T03050176  RH  046%=      5-min Rain = 0
KTH1 080448Z 16008KT 31/18 A30 RMK A01 T03050176  RH  046%=      5-min Rain = 0
KTH1 080449Z 15007KT 31/18 A30 RMK A01 T03050176  RH  046%=      5-min Rain = 0
KTH1 080450Z 16008KT 31/18 A30 RMK A01 T03050177  RH  046%=      5-min Rain = 0
KTH1 080451Z 16009KT 31/18 A30 RMK A01 T03050177  RH  046%=      5-min Rain = 0
KTH1 080452Z 16009KT 30/18 A30 RMK A01 T03040177  RH  046%=      5-min Rain = 0
KTH1 080453Z 16008KT 30/18 A30 RMK A01 T03040177  RH  046%=      5-min Rain = 0
KTH1 080454Z 16007KT 30/18 A30 RMK A01 T03040177  RH  046%=      5-min Rain = 0
KTH1 080455Z 16007KT 30/18 A30 RMK A01 T03040177  RH  046%=      5-min Rain = 0
KTH1 080456Z 16009KT 30/18 A30 RMK A01 T03040177  RH  047%=      5-min Rain = 0
KTH1 080457Z 16009KT 30/18 A30 RMK A01 T03030177  RH  047%=      5-min Rain = 0
KTH1 080458Z 16009KT 30/18 A30 RMK A01 T03030177  RH  047%=      5-min Rain = 0
KTH1 080459Z 16008KT 30/18 A30 RMK A01 T03030177  RH  047%=      5-min Rain = 0

Page generated in 0.1205 seconds.